Time,TemperatureF,DewpointF,PressureIn,WindDirection,WindDirectionDegrees,WindSpeedMPH,WindSpeedGustMPH,Humidity,HourlyPrecipIn,Conditions,Clouds,dailyrainin,SoftwareType,DateUTC
2013-05-07 00:00:00,56.5,56.5,30.28,East,90,4.0,6.0,0,0.00,,,0.00,meteohub,2013-05-07 04:00:00,
2013-05-07 00:01:00,56.5,56.5,30.27,SE,135,4.0,7.0,0,0.00,,,0.00,meteohub,2013-05-07 04:01:00,
2013-05-07 00:02:00,56.5,56.5,30.28,SE,135,4.0,7.0,0,0.00,,,0.00,meteohub,2013-05-07 04:02:00,
2013-05-07 00:05:00,56.5,56.5,30.28,SE,135,4.0,7.0,0,0.00,,,0.00,meteohub,2013-05-07 04:05:00,
2013-05-07 00:06:00,56.5,56.5,30.28,SE,135,4.0,7.0,0,0.00,,,0.00,meteohub,2013-05-07 04:06:00,
2013-05-07 00:07:00,56.5,56.5,30.28,SE,135,4.0,7.0,0,0.00,,,0.00,meteohub,2013-05-07 04:07:00,
2013-05-07 00:09:00,56.1,56.1,30.28,East,90,6.0,7.0,0,0.00,,,0.00,meteohub,2013-05-07 04:09:00,
2013-05-07 00:11:00,55.9,55.9,30.27,East,90,5.0,8.0,0,0.00,,,0.00,meteohub,2013-05-07 04:11:00,
2013-05-07 00:12:00,55.9,55.9,30.27,South,180,6.0,8.0,0,0.00,,,0.00,meteohub,2013-05-07 04:12:00,
2013-05-07 00:15:00,55.9,55.9,30.28,East,90,4.0,8.0,0,0.00,,,0.00,meteohub,2013-05-07 04:15:00,
2013-05-07 00:17:00,55.8,55.8,30.27,East,90,5.0,11.0,0,0.00,,,0.00,meteohub,2013-05-07 04:17:00,
2013-05-07 00:18:00,55.8,55.8,30.27,East,90,3.0,11.0,0,0.00,,,0.00,meteohub,2013-05-07 04:18:00,
2013-05-07 00:19:00,55.8,55.8,30.27,SE,135,4.0,11.0,0,0.00,,,0.00,meteohub,2013-05-07 04:19:00,
2013-05-07 00:20:00,55.8,55.8,30.27,NE,45,6.0,11.0,0,0.00,,,0.00,meteohub,2013-05-07 04:20:00,
2013-05-07 00:22:00,55.8,55.8,30.27,SE,135,5.0,11.0,0,0.00,,,0.00,meteohub,2013-05-07 04:22:00,
2013-05-07 00:23:00,55.6,55.6,30.27,East,90,4.0,11.0,0,0.00,,,0.00,meteohub,2013-05-07 04:23:00,
2013-05-07 00:24:00,55.6,55.6,30.27,East,90,4.0,11.0,0,0.00,,,0.00,meteohub,2013-05-07 04:24:00,
2013-05-07 00:25:00,55.6,55.6,30.27,SE,135,4.0,11.0,0,0.00,,,0.00,meteohub,2013-05-07 04:25:00,
2013-05-07 00:27:00,55.6,55.6,30.27,East,90,3.0,11.0,0,0.00,,,0.00,meteohub,2013-05-07 04:27:00,
2013-05-07 00:29:00,55.6,55.6,30.27,South,180,9.0,11.0,0,0.00,,,0.00,meteohub,2013-05-07 04:29:00,
2013-05-07 00:30:00,55.4,55.4,30.27,SE,135,3.0,8.0,0,0.00,,,0.00,meteohub,2013-05-07 04:30:00,
2013-05-07 00:31:00,55.4,55.4,30.27,SE,135,3.0,8.0,0,0.00,,,0.00,meteohub,2013-05-07 04:31:00,
2013-05-07 00:34:00,55.4,55.4,30.27,East,90,4.0,8.0,0,0.00,,,0.00,meteohub,2013-05-07 04:34:00,
2013-05-07 00:35:00,55.4,55.4,30.27,East,90,4.0,9.0,0,0.00,,,0.00,meteohub,2013-05-07 04:35:00,
2013-05-07 00:36:00,55.4,55.4,30.27,East,90,4.0,9.0,0,0.00,,,0.00,meteohub,2013-05-07 04:36:00,
2013-05-07 00:37:00,55.4,55.4,30.27,SE,135,4.0,9.0,0,0.00,,,0.00,meteohub,2013-05-07 04:37:00,
2013-05-07 00:39:00,55.4,55.4,30.27,East,90,4.0,9.0,0,0.00,,,0.00,meteohub,2013-05-07 04:39:00,
2013-05-07 00:41:00,55.4,55.4,30.27,SE,135,4.0,9.0,0,0.00,,,0.00,meteohub,2013-05-07 04:41:00,
2013-05-07 00:42:00,55.4,55.4,30.27,SE,135,4.0,9.0,0,0.00,,,0.00,meteohub,2013-05-07 04:42:00,
2013-05-07 00:44:00,55.4,55.4,30.27,East,90,4.0,9.0,0,0.00,,,0.00,meteohub,2013-05-07 04:44:00,
2013-05-07 00:47:00,55.4,55.4,30.27,East,90,3.0,8.0,0,0.00,,,0.00,meteohub,2013-05-07 04:47:00,
2013-05-07 00:48:00,55.4,55.4,30.27,SE,135,4.0,8.0,0,0.00,,,0.00,meteohub,2013-05-07 04:48:00,
2013-05-07 00:49:00,55.4,55.4,30.27,SE,135,4.0,8.0,0,0.00,,,0.00,meteohub,2013-05-07 04:49:00,
2013-05-07 00:52:00,55.4,55.4,30.27,SE,135,4.0,6.0,0,0.00,,,0.00,meteohub,2013-05-07 04:52:00,
2013-05-07 00:53:00,55.4,55.4,30.27,East,90,4.0,6.0,0,0.00,,,0.00,meteohub,2013-05-07 04:53:00,
2013-05-07 00:54:00,55.4,55.4,30.27,East,90,4.0,6.0,0,0.00,,,0.00,meteohub,2013-05-07 04:54:00,
2013-05-07 00:55:00,55.4,55.4,30.26,East,90,5.0,9.0,0,0.00,,,0.00,meteohub,2013-05-07 04:55:00,
2013-05-07 00:57:00,55.4,55.4,30.27,SE,135,4.0,9.0,0,0.00,,,0.00,meteohub,2013-05-07 04:57:00,
2013-05-07 00:58:00,55.4,55.4,30.27,SE,135,4.0,9.0,0,0.00,,,0.00,meteohub,2013-05-07 04:58:00,
2013-05-07 00:59:00,55.2,55.2,30.27,NE,45,4.0,9.0,0,0.00,,,0.00,meteohub,2013-05-07 04:59:00,
2013-05-07 01:00:00,55.2,55.2,30.26,East,90,3.0,9.0,0,0.00,,,0.00,meteohub,2013-05-07 05:00:00,
2013-05-07 01:03:00,55.2,55.2,30.27,East,90,3.0,9.0,0,0.00,,,0.00,meteohub,2013-05-07 05:03:00,
2013-05-07 01:04:00,55.2,55.2,30.27,East,90,3.0,9.0,0,0.00,,,0.00,meteohub,2013-05-07 05:04:00,
2013-05-07 01:05:00,55.2,55.2,30.27,East,90,3.0,9.0,0,0.00,,,0.00,meteohub,2013-05-07 05:05:00,
2013-05-07 01:06:00,55.2,55.2,30.27,East,90,3.0,9.0,0,0.00,,,0.00,meteohub,2013-05-07 05:06:00,
2013-05-07 01:09:00,55.2,55.2,30.26,NE,45,4.0,9.0,0,0.00,,,0.00,meteohub,2013-05-07 05:09:00,
2013-05-07 01:10:00,55.2,55.2,30.26,East,90,4.0,5.0,0,0.00,,,0.00,meteohub,2013-05-07 05:10:00,
2013-05-07 01:11:00,55.2,55.2,30.26,East,90,4.0,5.0,0,0.00,,,0.00,meteohub,2013-05-07 05:11:00,
2013-05-07 01:12:00,55.4,55.4,30.26,East,90,3.0,5.0,0,0.00,,,0.00,meteohub,2013-05-07 05:12:00,
2013-05-07 01:14:00,55.4,55.4,30.26,East,90,4.0,5.0,0,0.00,,,0.00,meteohub,2013-05-07 05:14:00,
2013-05-07 01:16:00,55.2,55.2,30.26,East,90,4.0,5.0,0,0.00,,,0.00,meteohub,2013-05-07 05:16:00,
2013-05-07 01:18:00,55.4,55.4,30.26,East,90,4.0,5.0,0,0.00,,,0.00,meteohub,2013-05-07 05:18:00,
2013-05-07 01:20:00,55.2,55.2,30.26,East,90,4.0,5.0,0,0.00,,,0.00,meteohub,2013-05-07 05:20:00,
2013-05-07 01:21:00,55.4,55.4,30.26,East,90,4.0,5.0,0,0.00,,,0.00,meteohub,2013-05-07 05:21:00,
2013-05-07 01:23:00,55.4,55.4,30.26,NE,45,4.0,5.0,0,0.00,,,0.00,meteohub,2013-05-07 05:23:00,
2013-05-07 01:26:00,55.2,55.2,30.26,East,90,3.0,5.0,0,0.00,,,0.00,meteohub,2013-05-07 05:26:00,
2013-05-07 01:28:00,55.2,55.2,30.26,SE,135,3.0,5.0,0,0.00,,,0.00,meteohub,2013-05-07 05:28:00,
2013-05-07 01:30:00,55.2,55.2,30.26,East,90,4.0,5.0,0,0.00,,,0.00,meteohub,2013-05-07 05:30:00,
2013-05-07 01:32:00,55.2,55.2,30.26,East,90,5.0,5.0,0,0.00,,,0.00,meteohub,2013-05-07 05:32:00,
2013-05-07 01:33:00,55.0,55.0,30.26,SE,135,3.0,5.0,0,0.00,,,0.00,meteohub,2013-05-07 05:33:00,
2013-05-07 01:36:00,55.4,55.4,30.26,East,90,5.0,5.0,0,0.00,,,0.00,meteohub,2013-05-07 05:36:00,
2013-05-07 01:37:00,55.4,55.4,30.26,East,90,4.0,5.0,0,0.00,,,0.00,meteohub,2013-05-07 05:37:00,
2013-05-07 01:38:00,55.4,55.4,30.26,NE,45,4.0,5.0,0,0.00,,,0.00,meteohub,2013-05-07 05:38:00,
2013-05-07 01:39:00,55.4,55.4,30.26,East,90,8.0,8.0,0,0.00,,,0.00,meteohub,2013-05-07 05:39:00,
2013-05-07 01:42:00,55.4,55.4,30.26,East,90,4.0,8.0,0,0.00,,,0.00,meteohub,2013-05-07 05:42:00,
2013-05-07 01:43:00,55.4,55.4,30.26,East,90,4.0,8.0,0,0.00,,,0.00,meteohub,2013-05-07 05:43:00,
2013-05-07 01:44:00,55.4,55.4,30.26,NE,45,4.0,8.0,0,0.00,,,0.00,meteohub,2013-05-07 05:44:00,
2013-05-07 01:46:00,55.4,55.4,30.26,East,90,4.0,8.0,0,0.00,,,0.00,meteohub,2013-05-07 05:46:00,
2013-05-07 01:48:00,55.4,55.4,30.26,East,90,3.0,8.0,0,0.00,,,0.00,meteohub,2013-05-07 05:48:00,
2013-05-07 01:49:00,55.4,55.4,30.25,East,90,6.0,8.0,0,0.00,,,0.00,meteohub,2013-05-07 05:49:00,
2013-05-07 01:51:00,55.4,55.4,30.26,East,90,4.0,8.0,0,0.00,,,0.00,meteohub,2013-05-07 05:51:00,
2013-05-07 01:52:00,55.4,55.4,30.26,East,90,3.0,8.0,0,0.00,,,0.00,meteohub,2013-05-07 05:52:00,
2013-05-07 01:54:00,55.4,55.4,30.25,East,90,4.0,8.0,0,0.00,,,0.00,meteohub,2013-05-07 05:54:00,
2013-05-07 01:55:00,55.4,55.4,30.26,East,90,4.0,6.0,0,0.00,,,0.00,meteohub,2013-05-07 05:55:00,
2013-05-07 01:57:00,55.4,55.4,30.26,East,90,3.0,6.0,0,0.00,,,0.00,meteohub,2013-05-07 05:57:00,
2013-05-07 01:58:00,55.4,55.4,30.25,East,90,3.0,6.0,0,0.00,,,0.00,meteohub,2013-05-07 05:58:00,
2013-05-07 01:59:00,55.4,55.4,30.25,East,90,5.0,6.0,0,0.00,,,0.00,meteohub,2013-05-07 05:59:00,
2013-05-07 02:00:00,55.4,55.4,30.25,East,90,4.0,6.0,0,0.00,,,0.00,meteohub,2013-05-07 06:00:00,
2013-05-07 02:03:00,55.4,55.4,30.25,East,90,4.0,6.0,0,0.00,,,0.00,meteohub,2013-05-07 06:03:00,
2013-05-07 02:04:00,55.4,55.4,30.25,East,90,4.0,6.0,0,0.00,,,0.00,meteohub,2013-05-07 06:04:00,
2013-05-07 02:05:00,55.4,55.4,30.25,East,90,4.0,5.0,0,0.00,,,0.00,meteohub,2013-05-07 06:05:00,
2013-05-07 02:06:00,55.4,55.4,30.25,East,90,4.0,5.0,0,0.00,,,0.00,meteohub,2013-05-07 06:06:00,
2013-05-07 02:09:00,55.4,55.4,30.25,NW,315,4.0,5.0,0,0.00,,,0.00,meteohub,2013-05-07 06:09:00,
2013-05-07 02:10:00,55.4,55.4,30.25,NE,45,2.0,5.0,0,0.00,,,0.00,meteohub,2013-05-07 06:10:00,
2013-05-07 02:11:00,55.4,55.4,30.25,SE,135,3.0,5.0,0,0.00,,,0.00,meteohub,2013-05-07 06:11:00,
2013-05-07 02:12:00,55.2,55.2,30.25,East,90,2.0,5.0,0,0.00,,,0.00,meteohub,2013-05-07 06:12:00,
2013-05-07 02:14:00,55.2,55.2,30.25,North,0,2.0,5.0,0,0.00,,,0.00,meteohub,2013-05-07 06:14:00,
2013-05-07 02:15:00,55.2,55.2,30.25,SE,135,6.0,6.0,0,0.00,,,0.00,meteohub,2013-05-07 06:15:00,
2013-05-07 02:17:00,55.2,55.2,30.25,North,0,2.0,4.0,0,0.00,,,0.00,meteohub,2013-05-07 06:17:00,
2013-05-07 02:18:00,55.2,55.2,30.25,North,0,2.0,4.0,0,0.00,,,0.00,meteohub,2013-05-07 06:18:00,
2013-05-07 02:21:00,55.2,55.2,30.25,East,90,3.0,6.0,0,0.00,,,0.00,meteohub,2013-05-07 06:21:00,
2013-05-07 02:22:00,55.0,55.0,30.25,NE,45,5.0,6.0,0,0.00,,,0.00,meteohub,2013-05-07 06:22:00,
2013-05-07 02:23:00,55.2,55.2,30.25,East,90,3.0,6.0,0,0.00,,,0.00,meteohub,2013-05-07 06:23:00,
2013-05-07 02:26:00,55.2,55.2,30.25,SE,135,4.0,6.0,0,0.00,,,0.00,meteohub,2013-05-07 06:26:00,
2013-05-07 02:27:00,55.2,55.2,30.25,ESE,113,3.0,6.0,0,0.00,,,0.00,meteohub,2013-05-07 06:27:00,
2013-05-07 02:28:00,55.2,55.2,30.25,East,90,3.0,6.0,0,0.00,,,0.00,meteohub,2013-05-07 06:28:00,
2013-05-07 02:29:00,55.2,55.2,30.25,East,90,5.0,6.0,0,0.00,,,0.00,meteohub,2013-05-07 06:29:00,
2013-05-07 02:31:00,55.2,55.2,30.25,East,90,2.0,6.0,0,0.00,,,0.00,meteohub,2013-05-07 06:31:00,
2013-05-07 02:32:00,55.4,55.4,30.25,East,90,3.0,6.0,0,0.00,,,0.00,meteohub,2013-05-07 06:32:00,
2013-05-07 02:33:00,55.4,55.4,30.25,East,90,4.0,6.0,0,0.00,,,0.00,meteohub,2013-05-07 06:33:00,
2013-05-07 02:35:00,55.2,55.2,30.25,SE,135,3.0,6.0,0,0.00,,,0.00,meteohub,2013-05-07 06:35:00,
2013-05-07 02:37:00,55.2,55.2,30.25,South,180,4.0,6.0,0,0.00,,,0.00,meteohub,2013-05-07 06:37:00,
2013-05-07 02:38:00,55.0,55.0,30.25,SE,135,7.0,7.0,0,0.00,,,0.00,meteohub,2013-05-07 06:38:00,
2013-05-07 02:41:00,55.2,55.2,30.25,East,90,3.0,7.0,0,0.00,,,0.00,meteohub,2013-05-07 06:41:00,
2013-05-07 02:42:00,55.0,55.0,30.24,North,0,6.0,7.0,0,0.00,,,0.00,meteohub,2013-05-07 06:42:00,
2013-05-07 02:45:00,55.2,55.2,30.25,SE,135,2.0,7.0,0,0.00,,,0.00,meteohub,2013-05-07 06:45:00,
2013-05-07 02:46:00,55.2,55.2,30.24,ESE,113,2.0,7.0,0,0.00,,,0.00,meteohub,2013-05-07 06:46:00,
2013-05-07 02:47:00,55.2,55.2,30.24,ESE,113,2.0,7.0,0,0.00,,,0.00,meteohub,2013-05-07 06:47:00,
2013-05-07 02:48:00,55.2,55.2,30.25,South,180,5.0,7.0,0,0.00,,,0.00,meteohub,2013-05-07 06:48:00,
2013-05-07 02:50:00,55.2,55.2,30.24,East,90,4.0,7.0,0,0.00,,,0.00,meteohub,2013-05-07 06:50:00,
2013-05-07 02:52:00,55.2,55.2,30.24,SE,135,4.0,7.0,0,0.00,,,0.00,meteohub,2013-05-07 06:52:00,
2013-05-07 02:53:00,55.2,55.2,30.25,East,90,3.0,7.0,0,0.00,,,0.00,meteohub,2013-05-07 06:53:00,
2013-05-07 02:55:00,55.4,55.4,30.25,NE,45,5.0,7.0,0,0.00,,,0.00,meteohub,2013-05-07 06:55:00,
2013-05-07 02:57:00,55.2,55.2,30.24,East,90,4.0,8.0,0,0.00,,,0.00,meteohub,2013-05-07 06:57:00,
2013-05-07 02:58:00,55.4,55.4,30.24,East,90,4.0,8.0,0,0.00,,,0.00,meteohub,2013-05-07 06:58:00,
2013-05-07 03:01:00,55.2,55.2,30.24,East,90,4.0,8.0,0,0.00,,,0.00,meteohub,2013-05-07 07:01:00,
2013-05-07 03:02:00,55.2,55.2,30.25,East,90,4.0,8.0,0,0.00,,,0.00,meteohub,2013-05-07 07:02:00,
2013-05-07 03:03:00,55.2,55.2,30.24,East,90,4.0,8.0,0,0.00,,,0.00,meteohub,2013-05-07 07:03:00,
2013-05-07 03:07:00,55.2,55.2,30.24,East,90,4.0,8.0,0,0.00,,,0.00,meteohub,2013-05-07 07:07:00,
2013-05-07 03:08:00,55.2,55.2,30.24,SE,135,6.0,8.0,0,0.00,,,0.00,meteohub,2013-05-07 07:08:00,
2013-05-07 03:09:00,55.2,55.2,30.24,SE,135,6.0,8.0,0,0.00,,,0.00,meteohub,2013-05-07 07:09:00,
2013-05-07 03:13:00,55.0,55.0,30.24,East,90,2.0,7.0,0,0.00,,,0.00,meteohub,2013-05-07 07:13:00,
2013-05-07 03:14:00,55.2,55.2,30.24,SE,135,2.0,7.0,0,0.00,,,0.00,meteohub,2013-05-07 07:14:00,
2013-05-07 03:18:00,55.2,55.2,30.24,SE,135,8.0,8.0,0,0.00,,,0.00,meteohub,2013-05-07 07:18:00,
2013-05-07 03:20:00,55.2,55.2,30.24,SE,135,4.0,7.0,0,0.00,,,0.00,meteohub,2013-05-07 07:20:00,
2013-05-07 03:23:00,55.2,55.2,30.24,SE,135,4.0,9.0,0,0.00,,,0.00,meteohub,2013-05-07 07:23:00,
2013-05-07 03:24:00,55.2,55.2,30.24,WSW,248,4.0,9.0,0,0.00,,,0.00,meteohub,2013-05-07 07:24:00,
2013-05-07 03:25:00,55.2,55.2,30.24,NE,45,6.0,9.0,0,0.00,,,0.00,meteohub,2013-05-07 07:25:00,
2013-05-07 03:29:00,55.2,55.2,30.25,East,90,4.0,9.0,0,0.00,,,0.00,meteohub,2013-05-07 07:29:00,
2013-05-07 03:30:00,55.4,55.4,30.24,East,90,4.0,9.0,0,0.00,,,0.00,meteohub,2013-05-07 07:30:00,
2013-05-07 03:31:00,55.4,55.4,30.24,SE,135,4.0,9.0,0,0.00,,,0.00,meteohub,2013-05-07 07:31:00,
2013-05-07 03:34:00,55.4,55.4,30.24,East,90,4.0,9.0,0,0.00,,,0.00,meteohub,2013-05-07 07:34:00,
2013-05-07 03:35:00,55.2,55.2,30.24,NE,45,7.0,8.0,0,0.00,,,0.00,meteohub,2013-05-07 07:35:00,
2013-05-07 03:36:00,55.2,55.2,30.24,NE,45,7.0,8.0,0,0.00,,,0.00,meteohub,2013-05-07 07:36:00,
2013-05-07 03:37:00,55.4,55.4,30.24,SE,135,7.0,8.0,0,0.00,,,0.00,meteohub,2013-05-07 07:37:00,
2013-05-07 03:40:00,55.2,55.2,30.24,East,90,4.0,8.0,0,0.00,,,0.00,meteohub,2013-05-07 07:40:00,
2013-05-07 03:41:00,55.2,55.2,30.24,NE,45,11.0,11.0,0,0.00,,,0.00,meteohub,2013-05-07 07:41:00,
2013-05-07 03:42:00,55.2,55.2,30.24,NE,45,11.0,11.0,0,0.00,,,0.00,meteohub,2013-05-07 07:42:00,
2013-05-07 03:45:00,55.4,55.4,30.24,NW,315,5.0,11.0,0,0.00,,,0.00,meteohub,2013-05-07 07:45:00,
2013-05-07 03:47:00,55.4,55.4,30.24,East,90,4.0,11.0,0,0.00,,,0.00,meteohub,2013-05-07 07:47:00,
2013-05-07 03:48:00,55.4,55.4,30.24,SE,135,5.0,11.0,0,0.00,,,0.00,meteohub,2013-05-07 07:48:00,
2013-05-07 03:49:00,55.4,55.4,30.24,NE,45,6.0,11.0,0,0.00,,,0.00,meteohub,2013-05-07 07:49:00,
2013-05-07 03:51:00,55.2,55.2,30.24,SE,135,3.0,11.0,0,0.00,,,0.00,meteohub,2013-05-07 07:51:00,
2013-05-07 03:52:00,55.2,55.2,30.24,East,90,5.0,11.0,0,0.00,,,0.00,meteohub,2013-05-07 07:52:00,
2013-05-07 03:54:00,55.2,55.2,30.24,East,90,3.0,11.0,0,0.00,,,0.00,meteohub,2013-05-07 07:54:00,
2013-05-07 03:56:00,55.2,55.2,30.24,East,90,5.0,11.0,0,0.00,,,0.00,meteohub,2013-05-07 07:56:00,
2013-05-07 03:57:00,55.2,55.2,30.24,East,90,5.0,11.0,0,0.00,,,0.00,meteohub,2013-05-07 07:57:00,
2013-05-07 03:58:00,55.2,55.2,30.24,SE,135,3.0,11.0,0,0.00,,,0.00,meteohub,2013-05-07 07:58:00,
2013-05-07 04:00:00,55.2,55.2,30.24,East,90,6.0,8.0,0,0.00,,,0.00,meteohub,2013-05-07 08:00:00,
2013-05-07 04:01:00,55.2,55.2,30.24,East,90,6.0,8.0,0,0.00,,,0.00,meteohub,2013-05-07 08:01:00,
2013-05-07 04:03:00,55.2,55.2,30.24,East,90,6.0,8.0,0,0.00,,,0.00,meteohub,2013-05-07 08:03:00,
2013-05-07 04:05:00,55.2,55.2,30.23,East,90,6.0,7.0,0,0.00,,,0.00,meteohub,2013-05-07 08:05:00,
2013-05-07 04:07:00,55.2,55.2,30.23,East,90,6.0,7.0,0,0.00,,,0.00,meteohub,2013-05-07 08:07:00,
2013-05-07 04:08:00,55.2,55.2,30.24,East,90,5.0,7.0,0,0.00,,,0.00,meteohub,2013-05-07 08:08:00,
2013-05-07 04:09:00,55.2,55.2,30.24,NE,45,6.0,7.0,0,0.00,,,0.00,meteohub,2013-05-07 08:09:00,
2013-05-07 04:10:00,55.2,55.2,30.24,East,90,6.0,7.0,0,0.00,,,0.00,meteohub,2013-05-07 08:10:00,
2013-05-07 04:13:00,55.2,55.2,30.24,East,90,8.0,8.0,0,0.00,,,0.00,meteohub,2013-05-07 08:13:00,
2013-05-07 04:14:00,55.2,55.2,30.24,East,90,5.0,7.0,0,0.00,,,0.00,meteohub,2013-05-07 08:14:00,
2013-05-07 04:16:00,55.2,55.2,30.24,East,90,5.0,11.0,0,0.00,,,0.00,meteohub,2013-05-07 08:16:00,
2013-05-07 04:18:00,55.2,55.2,30.24,East,90,8.0,11.0,0,0.00,,,0.00,meteohub,2013-05-07 08:18:00,
2013-05-07 04:19:00,55.4,55.4,30.24,SE,135,4.0,11.0,0,0.00,,,0.00,meteohub,2013-05-07 08:19:00,
2013-05-07 04:20:00,55.2,55.2,30.24,East,90,8.0,11.0,0,0.00,,,0.00,meteohub,2013-05-07 08:20:00,
2013-05-07 04:22:00,55.2,55.2,30.24,East,90,5.0,11.0,0,0.00,,,0.00,meteohub,2013-05-07 08:22:00,
2013-05-07 04:24:00,55.2,55.2,30.24,East,90,4.0,11.0,0,0.00,,,0.00,meteohub,2013-05-07 08:24:00,
2013-05-07 04:26:00,55.2,55.2,30.24,East,90,4.0,11.0,0,0.00,,,0.00,meteohub,2013-05-07 08:26:00,
2013-05-07 04:27:00,55.2,55.2,30.24,East,90,6.0,11.0,0,0.00,,,0.00,meteohub,2013-05-07 08:27:00,
2013-05-07 04:29:00,55.2,55.2,30.24,SE,135,6.0,11.0,0,0.00,,,0.00,meteohub,2013-05-07 08:29:00,
2013-05-07 04:30:00,55.2,55.2,30.24,NE,45,4.0,11.0,0,0.00,,,0.00,meteohub,2013-05-07 08:30:00,
2013-05-07 04:32:00,55.2,55.2,30.24,East,90,6.0,11.0,0,0.00,,,0.00,meteohub,2013-05-07 08:32:00,
2013-05-07 04:33:00,55.2,55.2,30.23,East,90,4.0,11.0,0,0.00,,,0.00,meteohub,2013-05-07 08:33:00,
2013-05-07 04:34:00,55.2,55.2,30.24,South,180,4.0,11.0,0,0.00,,,0.00,meteohub,2013-05-07 08:34:00,
2013-05-07 04:35:00,55.2,55.2,30.24,East,90,7.0,11.0,0,0.00,,,0.00,meteohub,2013-05-07 08:35:00,
2013-05-07 04:37:00,55.0,55.0,30.24,North,0,5.0,11.0,0,0.00,,,0.00,meteohub,2013-05-07 08:37:00,
2013-05-07 04:38:00,55.0,55.0,30.24,East,90,4.0,11.0,0,0.00,,,0.00,meteohub,2013-05-07 08:38:00,
2013-05-07 04:40:00,55.0,55.0,30.24,East,90,5.0,8.0,0,0.00,,,0.00,meteohub,2013-05-07 08:40:00,
2013-05-07 04:41:00,55.0,55.0,30.24,SE,135,3.0,8.0,0,0.00,,,0.00,meteohub,2013-05-07 08:41:00,
2013-05-07 04:42:00,55.0,55.0,30.24,East,90,3.0,8.0,0,0.00,,,0.00,meteohub,2013-05-07 08:42:00,
2013-05-07 04:43:00,55.2,55.2,30.23,East,90,6.0,8.0,0,0.00,,,0.00,meteohub,2013-05-07 08:43:00,
2013-05-07 04:44:00,55.0,55.0,30.24,SE,135,4.0,8.0,0,0.00,,,0.00,meteohub,2013-05-07 08:44:00,
2013-05-07 04:45:00,55.0,55.0,30.24,NE,45,4.0,8.0,0,0.00,,,0.00,meteohub,2013-05-07 08:45:00,
2013-05-07 04:46:00,55.0,55.0,30.23,East,90,7.0,8.0,0,0.00,,,0.00,meteohub,2013-05-07 08:46:00,
2013-05-07 04:47:00,55.0,55.0,30.24,East,90,7.0,8.0,0,0.00,,,0.00,meteohub,2013-05-07 08:47:00,
2013-05-07 04:49:00,55.0,55.0,30.24,East,90,11.0,11.0,0,0.00,,,0.00,meteohub,2013-05-07 08:49:00,
2013-05-07 04:51:00,55.2,55.2,30.24,East,90,5.0,7.0,0,0.00,,,0.00,meteohub,2013-05-07 08:51:00,
2013-05-07 04:52:00,55.2,55.2,30.23,NE,45,5.0,7.0,0,0.00,,,0.00,meteohub,2013-05-07 08:52:00,
2013-05-07 04:53:00,55.2,55.2,30.23,East,90,8.0,8.0,0,0.00,,,0.00,meteohub,2013-05-07 08:53:00,
2013-05-07 04:54:00,55.2,55.2,30.23,East,90,5.0,7.0,0,0.00,,,0.00,meteohub,2013-05-07 08:54:00,
2013-05-07 04:56:00,55.2,55.2,30.23,East,90,4.0,11.0,0,0.00,,,0.00,meteohub,2013-05-07 08:56:00,
2013-05-07 04:57:00,55.2,55.2,30.23,East,90,4.0,11.0,0,0.00,,,0.00,meteohub,2013-05-07 08:57:00,
2013-05-07 04:59:00,55.2,55.2,30.23,East,90,4.0,11.0,0,0.00,,,0.00,meteohub,2013-05-07 08:59:00,
2013-05-07 05:00:00,55.2,55.2,30.23,East,90,7.0,11.0,0,0.00,,,0.00,meteohub,2013-05-07 09:00:00,
2013-05-07 05:01:00,55.2,55.2,30.23,East,90,7.0,11.0,0,0.00,,,0.00,meteohub,2013-05-07 09:01:00,
2013-05-07 05:02:00,55.2,55.2,30.22,East,90,7.0,11.0,0,0.00,,,0.00,meteohub,2013-05-07 09:02:00,
2013-05-07 05:05:00,55.2,55.2,30.22,East,90,7.0,11.0,0,0.00,,,0.00,meteohub,2013-05-07 09:05:00,
2013-05-07 05:06:00,55.2,55.2,30.23,East,90,7.0,8.0,0,0.00,,,0.00,meteohub,2013-05-07 09:06:00,
2013-05-07 05:07:00,55.2,55.2,30.23,East,90,7.0,8.0,0,0.00,,,0.00,meteohub,2013-05-07 09:07:00,
2013-05-07 05:08:00,55.0,55.0,30.23,East,90,5.0,8.0,0,0.00,,,0.00,meteohub,2013-05-07 09:08:00,
2013-05-07 05:12:00,55.0,55.0,30.23,East,90,4.0,8.0,0,0.00,,,0.00,meteohub,2013-05-07 09:12:00,
2013-05-07 05:13:00,55.0,55.0,30.23,South,180,8.0,8.0,0,0.00,,,0.00,meteohub,2013-05-07 09:13:00,
2013-05-07 05:14:00,55.0,55.0,30.23,East,90,5.0,8.0,0,0.00,,,0.00,meteohub,2013-05-07 09:14:00,
2013-05-07 05:18:00,54.9,54.9,30.23,SE,135,4.0,8.0,0,0.00,,,0.00,meteohub,2013-05-07 09:18:00,
2013-05-07 05:19:00,54.9,54.9,30.23,East,90,4.0,8.0,0,0.00,,,0.00,meteohub,2013-05-07 09:19:00,
2013-05-07 05:20:00,54.9,54.9,30.23,East,90,4.0,8.0,0,0.00,,,0.00,meteohub,2013-05-07 09:20:00,
2013-05-07 05:24:00,54.9,54.9,30.23,South,180,6.0,8.0,0,0.00,,,0.00,meteohub,2013-05-07 09:24:00,
2013-05-07 05:25:00,54.9,54.9,30.23,East,90,4.0,8.0,0,0.00,,,0.00,meteohub,2013-05-07 09:25:00,
2013-05-07 05:27:00,54.9,54.9,30.23,East,90,5.0,8.0,0,0.00,,,0.00,meteohub,2013-05-07 09:27:00,
2013-05-07 05:28:00,54.9,54.9,30.23,East,90,6.0,8.0,0,0.00,,,0.00,meteohub,2013-05-07 09:28:00,
2013-05-07 05:29:00,54.9,54.9,30.23,East,90,5.0,8.0,0,0.00,,,0.00,meteohub,2013-05-07 09:29:00,
2013-05-07 05:30:00,54.9,54.9,30.23,East,90,5.0,8.0,0,0.00,,,0.00,meteohub,2013-05-07 09:30:00,
2013-05-07 05:34:00,54.9,54.9,30.23,East,90,6.0,7.0,0,0.00,,,0.00,meteohub,2013-05-07 09:34:00,
2013-05-07 05:35:00,54.9,54.9,30.23,ESE,113,5.0,7.0,0,0.00,,,0.00,meteohub,2013-05-07 09:35:00,
2013-05-07 05:36:00,54.9,54.9,30.23,East,90,6.0,7.0,0,0.00,,,0.00,meteohub,2013-05-07 09:36:00,
2013-05-07 05:39:00,54.9,54.9,30.23,East,90,6.0,7.0,0,0.00,,,0.00,meteohub,2013-05-07 09:39:00,
2013-05-07 05:40:00,54.9,54.9,30.23,SE,135,7.0,7.0,0,0.00,,,0.00,meteohub,2013-05-07 09:40:00,
2013-05-07 05:41:00,54.9,54.9,30.23,SE,135,5.0,7.0,0,0.00,,,0.00,meteohub,2013-05-07 09:41:00,
2013-05-07 05:42:00,54.9,54.9,30.23,East,90,5.0,7.0,0,0.00,,,0.00,meteohub,2013-05-07 09:42:00,
2013-05-07 05:44:00,54.9,54.9,30.23,East,90,5.0,7.0,0,0.00,,,0.00,meteohub,2013-05-07 09:44:00,
2013-05-07 05:46:00,54.9,54.9,30.23,East,90,9.0,9.0,0,0.00,,,0.00,meteohub,2013-05-07 09:46:00,
2013-05-07 05:47:00,54.9,54.9,30.23,WSW,248,7.0,7.0,0,0.00,,,0.00,meteohub,2013-05-07 09:47:00,
2013-05-07 05:48:00,54.9,54.9,30.23,WSW,248,7.0,7.0,0,0.00,,,0.00,meteohub,2013-05-07 09:48:00,
2013-05-07 05:50:00,54.9,54.9,30.23,East,90,5.0,9.0,0,0.00,,,0.00,meteohub,2013-05-07 09:50:00,
2013-05-07 05:51:00,54.9,54.9,30.23,East,90,4.0,9.0,0,0.00,,,0.00,meteohub,2013-05-07 09:51:00,
2013-05-07 05:52:00,54.9,54.9,30.23,East,90,5.0,9.0,0,0.00,,,0.00,meteohub,2013-05-07 09:52:00,
2013-05-07 05:53:00,54.9,54.9,30.23,East,90,4.0,9.0,0,0.00,,,0.00,meteohub,2013-05-07 09:53:00,
2013-05-07 05:55:00,54.9,54.9,30.23,SE,135,4.0,9.0,0,0.00,,,0.00,meteohub,2013-05-07 09:55:00,
2013-05-07 05:56:00,54.9,54.9,30.23,East,90,5.0,9.0,0,0.00,,,0.00,meteohub,2013-05-07 09:56:00,
2013-05-07 05:57:00,54.9,54.9,30.23,East,90,5.0,9.0,0,0.00,,,0.00,meteohub,2013-05-07 09:57:00,
2013-05-07 05:58:00,54.9,54.9,30.23,South,180,5.0,9.0,0,0.00,,,0.00,meteohub,2013-05-07 09:58:00,
2013-05-07 05:59:00,54.9,54.9,30.23,South,180,5.0,9.0,0,0.00,,,0.00,meteohub,2013-05-07 09:59:00,
2013-05-07 06:01:00,54.9,54.9,30.23,East,90,4.0,9.0,0,0.00,,,0.00,meteohub,2013-05-07 10:01:00,
2013-05-07 06:03:00,54.9,54.9,30.23,East,90,4.0,9.0,0,0.00,,,0.00,meteohub,2013-05-07 10:03:00,
2013-05-07 06:04:00,54.9,54.9,30.23,East,90,4.0,9.0,0,0.00,,,0.00,meteohub,2013-05-07 10:04:00,
2013-05-07 06:06:00,54.9,54.9,30.23,East,90,4.0,6.0,0,0.00,,,0.00,meteohub,2013-05-07 10:06:00,
2013-05-07 06:08:00,54.9,54.9,30.23,East,90,4.0,6.0,0,0.00,,,0.00,meteohub,2013-05-07 10:08:00,
2013-05-07 06:09:00,54.9,54.9,30.24,NE,45,10.0,10.0,0,0.00,,,0.00,meteohub,2013-05-07 10:09:00,
2013-05-07 06:10:00,54.9,54.9,30.24,NE,45,10.0,10.0,0,0.00,,,0.00,meteohub,2013-05-07 10:10:00,
2013-05-07 06:11:00,54.9,54.9,30.24,East,90,8.0,10.0,0,0.00,,,0.00,meteohub,2013-05-07 10:11:00,
2013-05-07 06:15:00,54.9,54.9,30.23,East,90,6.0,10.0,0,0.00,,,0.00,meteohub,2013-05-07 10:15:00,
2013-05-07 06:16:00,54.9,54.9,30.23,NE,45,5.0,10.0,0,0.00,,,0.00,meteohub,2013-05-07 10:16:00,
2013-05-07 06:20:00,54.9,54.9,30.23,East,90,11.0,12.0,0,0.00,,,0.00,meteohub,2013-05-07 10:20:00,
2013-05-07 06:21:00,54.9,54.9,30.23,East,90,6.0,12.0,0,0.00,,,0.00,meteohub,2013-05-07 10:21:00,
2013-05-07 06:25:00,54.9,54.9,30.24,East,90,6.0,12.0,0,0.00,,,0.00,meteohub,2013-05-07 10:25:00,
2013-05-07 06:26:00,54.9,54.9,30.23,East,90,7.0,12.0,0,0.00,,,0.00,meteohub,2013-05-07 10:26:00,
2013-05-07 06:27:00,54.9,54.9,30.23,East,90,7.0,12.0,0,0.00,,,0.00,meteohub,2013-05-07 10:27:00,
2013-05-07 06:31:00,54.7,54.7,30.24,SE,135,6.0,12.0,0,0.00,,,0.00,meteohub,2013-05-07 10:31:00,
2013-05-07 06:32:00,54.7,54.7,30.23,SE,135,9.0,12.0,0,0.00,,,0.00,meteohub,2013-05-07 10:32:00,
2013-05-07 06:37:00,54.7,54.7,30.23,East,90,5.0,11.0,0,0.00,,,0.00,meteohub,2013-05-07 10:37:00,
2013-05-07 06:38:00,54.7,54.7,30.23,ESE,113,5.0,11.0,0,0.00,,,0.00,meteohub,2013-05-07 10:38:00,
2013-05-07 06:39:00,54.7,54.7,30.24,East,90,7.0,11.0,0,0.00,,,0.00,meteohub,2013-05-07 10:39:00,
2013-05-07 06:42:00,54.7,54.7,30.23,East,90,4.0,11.0,0,0.00,,,0.00,meteohub,2013-05-07 10:42:00,
2013-05-07 06:43:00,54.7,54.7,30.23,East,90,4.0,11.0,0,0.00,,,0.00,meteohub,2013-05-07 10:43:00,
2013-05-07 06:47:00,54.7,54.7,30.23,East,90,8.0,9.0,0,0.00,,,0.00,meteohub,2013-05-07 10:47:00,
2013-05-07 06:48:00,54.7,54.7,30.23,SE,135,5.0,9.0,0,0.00,,,0.00,meteohub,2013-05-07 10:48:00,
2013-05-07 06:49:00,54.7,54.7,30.23,East,90,6.0,9.0,0,0.00,,,0.00,meteohub,2013-05-07 10:49:00,
2013-05-07 06:52:00,54.7,54.7,30.24,SE,135,8.0,11.0,0,0.00,,,0.00,meteohub,2013-05-07 10:52:00,
2013-05-07 06:53:00,54.7,54.7,30.24,SE,135,8.0,11.0,0,0.00,,,0.00,meteohub,2013-05-07 10:53:00,
2013-05-07 06:54:00,54.7,54.7,30.24,NE,45,6.0,11.0,0,0.00,,,0.00,meteohub,2013-05-07 10:54:00,
2013-05-07 06:58:00,54.7,54.7,30.24,SE,135,6.0,11.0,0,0.00,,,0.00,meteohub,2013-05-07 10:58:00,
2013-05-07 06:59:00,54.7,54.7,30.24,SE,135,6.0,11.0,0,0.00,,,0.00,meteohub,2013-05-07 10:59:00,
2013-05-07 07:00:00,54.7,54.7,30.24,East,90,6.0,11.0,0,0.00,,,0.00,meteohub,2013-05-07 11:00:00,
2013-05-07 07:01:00,54.7,54.7,30.24,East,90,8.0,11.0,0,0.00,,,0.00,meteohub,2013-05-07 11:01:00,
2013-05-07 07:03:00,54.7,54.7,30.24,East,90,5.0,11.0,0,0.00,,,0.00,meteohub,2013-05-07 11:03:00,
2013-05-07 07:04:00,54.7,54.7,30.24,East,90,7.0,11.0,0,0.00,,,0.00,meteohub,2013-05-07 11:04:00,
2013-05-07 07:05:00,54.7,54.7,30.24,East,90,11.0,11.0,0,0.00,,,0.00,meteohub,2013-05-07 11:05:00,
2013-05-07 07:08:00,54.7,54.7,30.24,SE,135,7.0,11.0,0,0.00,,,0.00,meteohub,2013-05-07 11:08:00,
2013-05-07 07:09:00,54.7,54.7,30.24,East,90,8.0,11.0,0,0.00,,,0.00,meteohub,2013-05-07 11:09:00,
2013-05-07 07:10:00,54.9,54.9,30.25,East,90,5.0,11.0,0,0.00,,,0.00,meteohub,2013-05-07 11:10:00,
2013-05-07 07:11:00,54.9,54.9,30.25,East,90,6.0,11.0,0,0.00,,,0.00,meteohub,2013-05-07 11:11:00,
2013-05-07 07:14:00,54.9,54.9,30.24,East,90,5.0,11.0,0,0.00,,,0.00,meteohub,2013-05-07 11:14:00,
2013-05-07 07:15:00,54.9,54.9,30.25,SE,135,6.0,15.0,0,0.00,,,0.00,meteohub,2013-05-07 11:15:00,
2013-05-07 07:16:00,54.9,54.9,30.25,SE,135,6.0,15.0,0,0.00,,,0.00,meteohub,2013-05-07 11:16:00,
2013-05-07 07:19:00,54.9,54.9,30.25,SE,135,6.0,15.0,0,0.00,,,0.00,meteohub,2013-05-07 11:19:00,
2013-05-07 07:20:00,54.9,54.9,30.25,SE,135,6.0,15.0,0,0.00,,,0.00,meteohub,2013-05-07 11:20:00,
2013-05-07 07:21:00,54.9,54.9,30.25,SE,135,6.0,15.0,0,0.00,,,0.00,meteohub,2013-05-07 11:21:00,
2013-05-07 07:23:00,55.2,55.2,30.25,SE,135,8.0,15.0,0,0.00,,,0.00,meteohub,2013-05-07 11:23:00,
2013-05-07 07:25:00,55.4,55.4,30.25,East,90,7.0,15.0,0,0.00,,,0.00,meteohub,2013-05-07 11:25:00,
2013-05-07 07:26:00,55.6,55.6,30.25,SE,135,8.0,15.0,0,0.00,,,0.00,meteohub,2013-05-07 11:26:00,
2013-05-07 07:27:00,55.6,55.6,30.25,East,90,8.0,15.0,0,0.00,,,0.00,meteohub,2013-05-07 11:27:00,
2013-05-07 07:31:00,55.8,55.8,30.25,East,90,8.0,8.0,0,0.00,,,0.00,meteohub,2013-05-07 11:31:00,
2013-05-07 07:32:00,55.8,55.8,30.25,SE,135,5.0,8.0,0,0.00,,,0.00,meteohub,2013-05-07 11:32:00,
2013-05-07 07:33:00,55.8,55.8,30.25,East,90,6.0,8.0,0,0.00,,,0.00,meteohub,2013-05-07 11:33:00,
2013-05-07 07:37:00,55.9,55.9,30.25,East,90,4.0,8.0,0,0.00,,,0.00,meteohub,2013-05-07 11:37:00,
2013-05-07 07:38:00,55.9,55.9,30.24,East,90,8.0,8.0,0,0.00,,,0.00,meteohub,2013-05-07 11:38:00,
2013-05-07 07:41:00,56.1,56.1,30.24,East,90,4.0,8.0,0,0.00,,,0.00,meteohub,2013-05-07 11:41:00,
2013-05-07 07:42:00,56.1,56.1,30.24,South,180,7.0,8.0,0,0.00,,,0.00,meteohub,2013-05-07 11:42:00,
2013-05-07 07:43:00,56.3,56.3,30.24,East,90,7.0,8.0,0,0.00,,,0.00,meteohub,2013-05-07 11:43:00,
2013-05-07 07:44:00,56.3,56.3,30.24,SE,135,6.0,8.0,0,0.00,,,0.00,meteohub,2013-05-07 11:44:00,
2013-05-07 07:47:00,56.5,56.5,30.24,SE,135,6.0,9.0,0,0.00,,,0.00,meteohub,2013-05-07 11:47:00,
2013-05-07 07:48:00,56.3,56.3,30.24,East,90,11.0,11.0,0,0.00,,,0.00,meteohub,2013-05-07 11:48:00,
2013-05-07 07:49:00,56.3,56.3,30.24,East,90,11.0,11.0,0,0.00,,,0.00,meteohub,2013-05-07 11:49:00,
2013-05-07 07:50:00,56.3,56.3,30.24,SE,135,8.0,9.0,0,0.00,,,0.00,meteohub,2013-05-07 11:50:00,
2013-05-07 07:53:00,56.7,56.7,30.24,East,90,7.0,9.0,0,0.00,,,0.00,meteohub,2013-05-07 11:53:00,
2013-05-07 07:54:00,56.8,56.8,30.24,South,180,6.0,9.0,0,0.00,,,0.00,meteohub,2013-05-07 11:54:00,
2013-05-07 07:55:00,57.0,57.0,30.24,SE,135,6.0,11.0,0,0.00,,,0.00,meteohub,2013-05-07 11:55:00,
2013-05-07 07:59:00,57.6,57.6,30.24,SE,135,12.0,12.0,0,0.00,,,0.00,meteohub,2013-05-07 11:59:00,
2013-05-07 08:00:00,57.7,57.7,30.23,East,90,9.0,11.0,0,0.00,,,0.00,meteohub,2013-05-07 12:00:00,
2013-05-07 08:02:00,57.7,57.7,30.24,East,90,9.0,12.0,0,0.00,,,0.00,meteohub,2013-05-07 12:02:00,
2013-05-07 08:04:00,57.7,57.7,30.24,East,90,9.0,12.0,0,0.00,,,0.00,meteohub,2013-05-07 12:04:00,
2013-05-07 08:05:00,57.7,57.7,30.24,East,90,9.0,12.0,0,0.00,,,0.00,meteohub,2013-05-07 12:05:00,
2013-05-07 08:07:00,58.5,58.5,30.23,SE,135,8.0,12.0,0,0.00,,,0.00,meteohub,2013-05-07 12:07:00,
2013-05-07 08:09:00,58.5,58.5,30.23,WSW,248,6.0,12.0,0,0.00,,,0.00,meteohub,2013-05-07 12:09:00,
2013-05-07 08:10:00,58.5,58.5,30.24,SE,135,7.0,12.0,0,0.00,,,0.00,meteohub,2013-05-07 12:10:00,
2013-05-07 08:11:00,58.5,58.5,30.23,East,90,7.0,12.0,0,0.00,,,0.00,meteohub,2013-05-07 12:11:00,
2013-05-07 08:12:00,58.5,58.5,30.24,East,90,7.0,12.0,0,0.00,,,0.00,meteohub,2013-05-07 12:12:00,
2013-05-07 08:14:00,58.5,58.5,30.24,East,90,9.0,12.0,0,0.00,,,0.00,meteohub,2013-05-07 12:14:00,
2013-05-07 08:15:00,58.3,58.3,30.24,North,0,6.0,11.0,0,0.00,,,0.00,meteohub,2013-05-07 12:15:00,
2013-05-07 08:17:00,58.1,58.1,30.24,SE,135,5.0,11.0,0,0.00,,,0.00,meteohub,2013-05-07 12:17:00,
2013-05-07 08:18:00,58.1,58.1,30.24,SE,135,6.0,11.0,0,0.00,,,0.00,meteohub,2013-05-07 12:18:00,
2013-05-07 08:19:00,58.1,58.1,30.24,East,90,7.0,11.0,0,0.00,,,0.00,meteohub,2013-05-07 12:19:00,
2013-05-07 08:21:00,57.9,57.9,30.24,East,90,8.0,11.0,0,0.00,,,0.00,meteohub,2013-05-07 12:21:00,
2013-05-07 08:22:00,58.1,58.1,30.24,NE,45,7.0,11.0,0,0.00,,,0.00,meteohub,2013-05-07 12:22:00,
2013-05-07 08:24:00,58.5,58.5,30.24,East,90,7.0,11.0,0,0.00,,,0.00,meteohub,2013-05-07 12:24:00,
2013-05-07 08:25:00,58.5,58.5,30.24,East,90,6.0,11.0,0,0.00,,,0.00,meteohub,2013-05-07 12:25:00,
2013-05-07 08:26:00,58.3,58.3,30.24,East,90,11.0,11.0,0,0.00,,,0.00,meteohub,2013-05-07 12:26:00,
2013-05-07 08:27:00,58.3,58.3,30.24,East,90,11.0,11.0,0,0.00,,,0.00,meteohub,2013-05-07 12:27:00,
2013-05-07 08:28:00,58.3,58.3,30.24,South,180,8.0,10.0,0,0.00,,,0.00,meteohub,2013-05-07 12:28:00,
2013-05-07 08:29:00,58.5,58.5,30.24,East,90,9.0,10.0,0,0.00,,,0.00,meteohub,2013-05-07 12:29:00,
2013-05-07 08:30:00,58.5,58.5,30.24,East,90,9.0,11.0,0,0.00,,,0.00,meteohub,2013-05-07 12:30:00,
2013-05-07 08:31:00,58.6,58.6,30.24,NW,315,8.0,11.0,0,0.00,,,0.00,meteohub,2013-05-07 12:31:00,
2013-05-07 08:32:00,58.8,58.8,30.24,East,90,8.0,11.0,0,0.00,,,0.00,meteohub,2013-05-07 12:32:00,
2013-05-07 08:34:00,58.8,58.8,30.24,East,90,9.0,11.0,0,0.00,,,0.00,meteohub,2013-05-07 12:34:00,
2013-05-07 08:35:00,58.8,58.8,30.24,NE,45,8.0,11.0,0,0.00,,,0.00,meteohub,2013-05-07 12:35:00,
2013-05-07 08:36:00,58.8,58.8,30.24,NE,45,8.0,11.0,0,0.00,,,0.00,meteohub,2013-05-07 12:36:00,
2013-05-07 08:37:00,58.8,58.8,30.25,SE,135,12.0,12.0,0,0.00,,,0.00,meteohub,2013-05-07 12:37:00,
2013-05-07 08:40:00,58.8,58.8,30.25,East,90,7.0,12.0,0,0.00,,,0.00,meteohub,2013-05-07 12:40:00,
2013-05-07 08:42:00,59.2,59.2,30.24,South,180,12.0,12.0,0,0.00,,,0.00,meteohub,2013-05-07 12:42:00,
2013-05-07 08:43:00,59.2,59.2,30.24,South,180,12.0,12.0,0,0.00,,,0.00,meteohub,2013-05-07 12:43:00,
2013-05-07 08:44:00,59.2,59.2,30.25,East,90,7.0,12.0,0,0.00,,,0.00,meteohub,2013-05-07 12:44:00,
2013-05-07 08:45:00,59.4,59.4,30.25,East,90,7.0,15.0,0,0.00,,,0.00,meteohub,2013-05-07 12:45:00,
2013-05-07 08:48:00,59.9,59.9,30.25,East,90,7.0,15.0,0,0.00,,,0.00,meteohub,2013-05-07 12:48:00,
2013-05-07 08:50:00,60.3,60.3,30.25,South,180,8.0,15.0,0,0.00,,,0.00,meteohub,2013-05-07 12:50:00,
2013-05-07 08:51:00,60.3,60.3,30.25,South,180,9.0,15.0,0,0.00,,,0.00,meteohub,2013-05-07 12:51:00,
2013-05-07 08:52:00,59.9,59.9,30.25,East,90,10.0,15.0,0,0.00,,,0.00,meteohub,2013-05-07 12:52:00,
2013-05-07 08:53:00,59.7,59.7,30.25,NE,45,10.0,15.0,0,0.00,,,0.00,meteohub,2013-05-07 12:53:00,
2013-05-07 08:55:00,59.7,59.7,30.25,East,90,11.0,15.0,0,0.00,,,0.00,meteohub,2013-05-07 12:55:00,
2013-05-07 08:56:00,59.5,59.5,30.25,East,90,8.0,15.0,0,0.00,,,0.00,meteohub,2013-05-07 12:56:00,
2013-05-07 08:57:00,59.4,59.4,30.25,East,90,8.0,15.0,0,0.00,,,0.00,meteohub,2013-05-07 12:57:00,
2013-05-07 08:59:00,59.4,59.4,30.25,ESE,113,8.0,15.0,0,0.00,,,0.00,meteohub,2013-05-07 12:59:00,
2013-05-07 09:01:00,59.2,59.2,30.25,SE,135,9.0,14.0,0,0.00,,,0.00,meteohub,2013-05-07 13:01:00,
2013-05-07 09:02:00,59.2,59.2,30.25,East,90,8.0,14.0,0,0.00,,,0.00,meteohub,2013-05-07 13:02:00,
2013-05-07 09:04:00,59.2,59.2,30.25,East,90,11.0,14.0,0,0.00,,,0.00,meteohub,2013-05-07 13:04:00,
2013-05-07 09:06:00,59.2,59.2,30.26,East,90,15.0,15.0,0,0.00,,,0.00,meteohub,2013-05-07 13:06:00,
2013-05-07 09:07:00,59.2,59.2,30.25,East,90,8.0,15.0,0,0.00,,,0.00,meteohub,2013-05-07 13:07:00,
2013-05-07 09:10:00,59.5,59.5,30.26,East,90,8.0,15.0,0,0.00,,,0.00,meteohub,2013-05-07 13:10:00,
2013-05-07 09:12:00,59.5,59.5,30.25,East,90,13.0,15.0,0,0.00,,,0.00,meteohub,2013-05-07 13:12:00,
2013-05-07 09:13:00,59.5,59.5,30.25,SE,135,8.0,15.0,0,0.00,,,0.00,meteohub,2013-05-07 13:13:00,
2013-05-07 09:15:00,59.2,59.2,30.26,SE,135,9.0,15.0,0,0.00,,,0.00,meteohub,2013-05-07 13:15:00,
2013-05-07 09:17:00,59.2,59.2,30.26,East,90,11.0,15.0,0,0.00,,,0.00,meteohub,2013-05-07 13:17:00,
2013-05-07 09:18:00,59.0,59.0,30.26,East,90,8.0,15.0,0,0.00,,,0.00,meteohub,2013-05-07 13:18:00,
2013-05-07 09:19:00,59.0,59.0,30.26,SE,135,4.0,15.0,0,0.00,,,0.00,meteohub,2013-05-07 13:19:00,
2013-05-07 09:20:00,59.0,59.0,30.26,East,90,6.0,15.0,0,0.00,,,0.00,meteohub,2013-05-07 13:20:00,
2013-05-07 09:23:00,58.6,58.6,30.26,East,90,10.0,15.0,0,0.00,,,0.00,meteohub,2013-05-07 13:23:00,
2013-05-07 09:25:00,58.3,58.3,30.27,NE,45,15.0,15.0,0,0.00,,,0.00,meteohub,2013-05-07 13:25:00,
2013-05-07 09:27:00,57.9,57.9,30.26,East,90,6.0,13.0,0,0.00,,,0.00,meteohub,2013-05-07 13:27:00,
2013-05-07 09:28:00,57.9,57.9,30.27,SE,135,4.0,13.0,0,0.00,,,0.00,meteohub,2013-05-07 13:28:00,
2013-05-07 09:31:00,58.1,58.1,30.26,South,180,4.0,15.0,0,0.00,,,0.00,meteohub,2013-05-07 13:31:00,
2013-05-07 09:32:00,58.3,58.3,30.26,East,90,6.0,15.0,0,0.00,,,0.00,meteohub,2013-05-07 13:32:00,
2013-05-07 09:34:00,58.3,58.3,30.26,SE,135,6.0,15.0,0,0.00,,,0.00,meteohub,2013-05-07 13:34:00,
2013-05-07 09:35:00,58.3,58.3,30.26,NE,45,11.0,15.0,0,0.00,,,0.00,meteohub,2013-05-07 13:35:00,
2013-05-07 09:36:00,58.3,58.3,30.26,NE,45,11.0,15.0,0,0.00,,,0.00,meteohub,2013-05-07 13:36:00,
2013-05-07 09:37:00,58.1,58.1,30.26,East,90,14.0,15.0,0,0.00,,,0.00,meteohub,2013-05-07 13:37:00,
2013-05-07 09:38:00,58.1,58.1,30.26,East,90,4.0,15.0,0,0.00,,,0.00,meteohub,2013-05-07 13:38:00,
2013-05-07 09:39:00,57.9,57.9,30.26,East,90,8.0,15.0,0,0.00,,,0.00,meteohub,2013-05-07 13:39:00,
2013-05-07 09:41:00,58.1,58.1,30.26,SE,135,6.0,15.0,0,0.00,,,0.00,meteohub,2013-05-07 13:41:00,
2013-05-07 09:42:00,58.1,58.1,30.26,East,90,8.0,15.0,0,0.00,,,0.00,meteohub,2013-05-07 13:42:00,
2013-05-07 09:44:00,58.1,58.1,30.26,South,180,8.0,15.0,0,0.00,,,0.00,meteohub,2013-05-07 13:44:00,
2013-05-07 09:45:00,58.1,58.1,30.26,East,90,11.0,15.0,0,0.00,,,0.00,meteohub,2013-05-07 13:45:00,
2013-05-07 09:46:00,58.1,58.1,30.26,East,90,11.0,14.0,0,0.00,,,0.00,meteohub,2013-05-07 13:46:00,
2013-05-07 09:48:00,58.1,58.1,30.26,East,90,10.0,14.0,0,0.00,,,0.00,meteohub,2013-05-07 13:48:00,
2013-05-07 09:49:00,58.1,58.1,30.27,East,90,8.0,14.0,0,0.00,,,0.00,meteohub,2013-05-07 13:49:00,
2013-05-07 09:50:00,58.1,58.1,30.27,SE,135,12.0,14.0,0,0.00,,,0.00,meteohub,2013-05-07 13:50:00,
2013-05-07 09:51:00,58.1,58.1,30.27,East,90,6.0,14.0,0,0.00,,,0.00,meteohub,2013-05-07 13:51:00,
2013-05-07 09:54:00,58.3,58.3,30.27,SE,135,4.0,14.0,0,0.00,,,0.00,meteohub,2013-05-07 13:54:00,
2013-05-07 09:55:00,58.3,58.3,30.27,SE,135,4.0,14.0,0,0.00,,,0.00,meteohub,2013-05-07 13:55:00,
2013-05-07 09:56:00,58.3,58.3,30.27,East,90,6.0,12.0,0,0.00,,,0.00,meteohub,2013-05-07 13:56:00,
2013-05-07 09:57:00,58.5,58.5,30.27,East,90,10.0,12.0,0,0.00,,,0.00,meteohub,2013-05-07 13:57:00,
2013-05-07 09:59:00,58.5,58.5,30.26,SE,135,7.0,12.0,0,0.00,,,0.00,meteohub,2013-05-07 13:59:00,
2013-05-07 10:00:00,58.5,58.5,30.26,SE,135,6.0,12.0,0,0.00,,,0.00,meteohub,2013-05-07 14:00:00,
2013-05-07 10:02:00,58.3,58.3,30.27,East,90,5.0,12.0,0,0.00,,,0.00,meteohub,2013-05-07 14:02:00,
2013-05-07 10:04:00,58.3,58.3,30.26,South,180,8.0,12.0,0,0.00,,,0.00,meteohub,2013-05-07 14:04:00,
2013-05-07 10:05:00,58.3,58.3,30.27,East,90,11.0,12.0,0,0.00,,,0.00,meteohub,2013-05-07 14:05:00,
2013-05-07 10:06:00,58.3,58.3,30.27,East,90,4.0,12.0,0,0.00,,,0.00,meteohub,2013-05-07 14:06:00,
2013-05-07 10:07:00,58.1,58.1,30.27,NE,45,5.0,12.0,0,0.00,,,0.00,meteohub,2013-05-07 14:07:00,
2013-05-07 10:10:00,58.3,58.3,30.26,East,90,4.0,12.0,0,0.00,,,0.00,meteohub,2013-05-07 14:10:00,
2013-05-07 10:12:00,58.5,58.5,30.26,SE,135,4.0,11.0,0,0.00,,,0.00,meteohub,2013-05-07 14:12:00,
2013-05-07 10:13:00,58.5,58.5,30.27,NE,45,5.0,11.0,0,0.00,,,0.00,meteohub,2013-05-07 14:13:00,
2013-05-07 10:15:00,58.6,58.6,30.27,South,180,8.0,11.0,0,0.00,,,0.00,meteohub,2013-05-07 14:15:00,
2013-05-07 10:17:00,58.6,58.6,30.27,South,180,5.0,11.0,0,0.00,,,0.00,meteohub,2013-05-07 14:17:00,
2013-05-07 10:18:00,58.8,58.8,30.27,SE,135,4.0,11.0,0,0.00,,,0.00,meteohub,2013-05-07 14:18:00,
2013-05-07 10:20:00,58.8,58.8,30.26,East,90,10.0,11.0,0,0.00,,,0.00,meteohub,2013-05-07 14:20:00,
2013-05-07 10:21:00,58.8,58.8,30.26,East,90,10.0,11.0,0,0.00,,,0.00,meteohub,2013-05-07 14:21:00,
2013-05-07 10:23:00,58.8,58.8,30.27,East,90,9.0,11.0,0,0.00,,,0.00,meteohub,2013-05-07 14:23:00,
2013-05-07 10:24:00,59.0,59.0,30.27,SE,135,5.0,11.0,0,0.00,,,0.00,meteohub,2013-05-07 14:24:00,
2013-05-07 10:26:00,59.0,59.0,30.27,East,90,9.0,15.0,0,0.00,,,0.00,meteohub,2013-05-07 14:26:00,
2013-05-07 10:27:00,59.2,59.2,30.27,East,90,7.0,15.0,0,0.00,,,0.00,meteohub,2013-05-07 14:27:00,
2013-05-07 10:28:00,59.2,59.2,30.27,SE,135,4.0,15.0,0,0.00,,,0.00,meteohub,2013-05-07 14:28:00,
2013-05-07 10:30:00,59.2,59.2,30.27,East,90,11.0,15.0,0,0.00,,,0.00,meteohub,2013-05-07 14:30:00,
2013-05-07 10:31:00,59.2,59.2,30.27,East,90,11.0,15.0,0,0.00,,,0.00,meteohub,2013-05-07 14:31:00,
2013-05-07 10:32:00,59.2,59.2,30.27,SE,135,10.0,15.0,0,0.00,,,0.00,meteohub,2013-05-07 14:32:00,
2013-05-07 10:33:00,59.4,59.4,30.27,SE,135,8.0,15.0,0,0.00,,,0.00,meteohub,2013-05-07 14:33:00,
2013-05-07 10:35:00,59.5,59.5,30.27,North,0,10.0,11.0,0,0.00,,,0.00,meteohub,2013-05-07 14:35:00,
2013-05-07 10:36:00,59.7,59.7,30.27,SE,135,5.0,11.0,0,0.00,,,0.00,meteohub,2013-05-07 14:36:00,
2013-05-07 10:37:00,60.1,60.1,30.27,SE,135,11.0,11.0,0,0.00,,,0.00,meteohub,2013-05-07 14:37:00,
2013-05-07 10:38:00,60.3,60.3,30.27,East,90,8.0,11.0,0,0.00,,,0.00,meteohub,2013-05-07 14:38:00,
2013-05-07 10:40:00,60.3,60.3,30.27,NE,45,10.0,11.0,0,0.00,,,0.00,meteohub,2013-05-07 14:40:00,
2013-05-07 10:41:00,60.3,60.3,30.27,NE,45,10.0,11.0,0,0.00,,,0.00,meteohub,2013-05-07 14:41:00,
2013-05-07 10:42:00,60.3,60.3,30.27,East,90,5.0,11.0,0,0.00,,,0.00,meteohub,2013-05-07 14:42:00,
2013-05-07 10:43:00,60.3,60.3,30.27,SE,135,5.0,11.0,0,0.00,,,0.00,meteohub,2013-05-07 14:43:00,
2013-05-07 10:44:00,60.3,60.3,30.27,East,90,7.0,11.0,0,0.00,,,0.00,meteohub,2013-05-07 14:44:00,
2013-05-07 10:46:00,60.3,60.3,30.27,NE,45,8.0,17.0,0,0.00,,,0.00,meteohub,2013-05-07 14:46:00,
2013-05-07 10:48:00,60.3,60.3,30.27,East,90,8.0,17.0,0,0.00,,,0.00,meteohub,2013-05-07 14:48:00,
2013-05-07 10:50:00,60.1,60.1,30.27,East,90,8.0,17.0,0,0.00,,,0.00,meteohub,2013-05-07 14:50:00,
2013-05-07 10:52:00,60.3,60.3,30.27,East,90,7.0,17.0,0,0.00,,,0.00,meteohub,2013-05-07 14:52:00,
2013-05-07 10:53:00,60.4,60.4,30.27,NE,45,9.0,17.0,0,0.00,,,0.00,meteohub,2013-05-07 14:53:00,
2013-05-07 10:55:00,60.4,60.4,30.27,SE,135,8.0,17.0,0,0.00,,,0.00,meteohub,2013-05-07 14:55:00,
2013-05-07 10:56:00,60.3,60.3,30.28,NE,45,7.0,17.0,0,0.00,,,0.00,meteohub,2013-05-07 14:56:00,
2013-05-07 10:59:00,60.4,60.4,30.27,East,90,5.0,17.0,0,0.00,,,0.00,meteohub,2013-05-07 14:59:00,
2013-05-07 11:00:00,60.6,60.6,30.27,South,180,7.0,17.0,0,0.00,,,0.00,meteohub,2013-05-07 15:00:00,
2013-05-07 11:01:00,60.6,60.6,30.27,South,180,7.0,12.0,0,0.00,,,0.00,meteohub,2013-05-07 15:01:00,
2013-05-07 11:03:00,61.0,61.0,30.27,WSW,248,9.0,12.0,0,0.00,,,0.00,meteohub,2013-05-07 15:03:00,
2013-05-07 11:04:00,61.0,61.0,30.27,SE,135,15.0,15.0,0,0.00,,,0.00,meteohub,2013-05-07 15:04:00,
2013-05-07 11:05:00,61.0,61.0,30.27,SE,135,9.0,9.0,0,0.00,,,0.00,meteohub,2013-05-07 15:05:00,
2013-05-07 11:06:00,61.2,61.2,30.27,SE,135,10.0,10.0,0,0.00,,,0.00,meteohub,2013-05-07 15:06:00,
2013-05-07 11:08:00,61.2,61.2,30.27,East,90,7.0,9.0,0,0.00,,,0.00,meteohub,2013-05-07 15:08:00,
2013-05-07 11:10:00,61.0,61.0,30.27,East,90,11.0,18.0,0,0.00,,,0.00,meteohub,2013-05-07 15:10:00,
2013-05-07 11:12:00,60.8,60.8,30.28,SE,135,8.0,18.0,0,0.00,,,0.00,meteohub,2013-05-07 15:12:00,
2013-05-07 11:13:00,61.0,61.0,30.27,East,90,4.0,18.0,0,0.00,,,0.00,meteohub,2013-05-07 15:13:00,
2013-05-07 11:16:00,61.0,61.0,30.27,East,90,7.0,18.0,0,0.00,,,0.00,meteohub,2013-05-07 15:16:00,
2013-05-07 11:17:00,61.2,61.2,30.27,East,90,7.0,18.0,0,0.00,,,0.00,meteohub,2013-05-07 15:17:00,
2013-05-07 11:19:00,61.0,61.0,30.27,SE,135,10.0,18.0,0,0.00,,,0.00,meteohub,2013-05-07 15:19:00,
2013-05-07 11:21:00,61.0,61.0,30.27,East,90,3.0,18.0,0,0.00,,,0.00,meteohub,2013-05-07 15:21:00,
2013-05-07 11:22:00,61.2,61.2,30.27,South,180,4.0,18.0,0,0.00,,,0.00,meteohub,2013-05-07 15:22:00,
2013-05-07 11:23:00,61.2,61.2,30.27,SE,135,5.0,18.0,0,0.00,,,0.00,meteohub,2013-05-07 15:23:00,
2013-05-07 11:25:00,61.2,61.2,30.27,South,180,13.0,13.0,0,0.00,,,0.00,meteohub,2013-05-07 15:25:00,
2013-05-07 11:26:00,61.2,61.2,30.27,South,180,13.0,13.0,0,0.00,,,0.00,meteohub,2013-05-07 15:26:00,
2013-05-07 11:27:00,61.2,61.2,30.27,East,90,8.0,11.0,0,0.00,,,0.00,meteohub,2013-05-07 15:27:00,
2013-05-07 11:29:00,61.0,61.0,30.27,South,180,8.0,11.0,0,0.00,,,0.00,meteohub,2013-05-07 15:29:00,
2013-05-07 11:30:00,61.0,61.0,30.27,East,90,8.0,15.0,0,0.00,,,0.00,meteohub,2013-05-07 15:30:00,
2013-05-07 11:31:00,61.0,61.0,30.27,East,90,8.0,15.0,0,0.00,,,0.00,meteohub,2013-05-07 15:31:00,
2013-05-07 11:32:00,60.8,60.8,30.27,East,90,8.0,15.0,0,0.00,,,0.00,meteohub,2013-05-07 15:32:00,
2013-05-07 11:33:00,60.8,60.8,30.27,East,90,10.0,15.0,0,0.00,,,0.00,meteohub,2013-05-07 15:33:00,
2013-05-07 11:34:00,60.8,60.8,30.27,East,90,11.0,15.0,0,0.00,,,0.00,meteohub,2013-05-07 15:34:00,
2013-05-07 11:36:00,61.0,61.0,30.27,East,90,8.0,15.0,0,0.00,,,0.00,meteohub,2013-05-07 15:36:00,
2013-05-07 11:37:00,61.0,61.0,30.27,East,90,8.0,15.0,0,0.00,,,0.00,meteohub,2013-05-07 15:37:00,
2013-05-07 11:38:00,61.0,61.0,30.27,SE,135,6.0,15.0,0,0.00,,,0.00,meteohub,2013-05-07 15:38:00,
2013-05-07 11:39:00,61.0,61.0,30.27,SE,135,5.0,15.0,0,0.00,,,0.00,meteohub,2013-05-07 15:39:00,
2013-05-07 11:41:00,61.2,61.2,30.27,East,90,4.0,15.0,0,0.00,,,0.00,meteohub,2013-05-07 15:41:00,
2013-05-07 11:43:00,61.5,61.5,30.27,SE,135,9.0,15.0,0,0.00,,,0.00,meteohub,2013-05-07 15:43:00,
2013-05-07 11:44:00,61.5,61.5,30.27,East,90,7.0,15.0,0,0.00,,,0.00,meteohub,2013-05-07 15:44:00,
2013-05-07 11:47:00,61.7,61.7,30.27,SE,135,13.0,13.0,0,0.00,,,0.00,meteohub,2013-05-07 15:47:00,
2013-05-07 11:49:00,61.9,61.9,30.27,East,90,6.0,11.0,0,0.00,,,0.00,meteohub,2013-05-07 15:49:00,
2013-05-07 11:50:00,62.1,62.1,30.27,North,0,6.0,11.0,0,0.00,,,0.00,meteohub,2013-05-07 15:50:00,
2013-05-07 11:53:00,62.6,62.6,30.27,SE,135,4.0,13.0,0,0.00,,,0.00,meteohub,2013-05-07 15:53:00,
2013-05-07 11:55:00,63.0,63.0,30.27,East,90,5.0,13.0,0,0.00,,,0.00,meteohub,2013-05-07 15:55:00,
2013-05-07 11:56:00,63.0,63.0,30.27,NE,45,7.0,13.0,0,0.00,,,0.00,meteohub,2013-05-07 15:56:00,
2013-05-07 11:58:00,63.1,63.1,30.27,East,90,6.0,13.0,0,0.00,,,0.00,meteohub,2013-05-07 15:58:00,
2013-05-07 11:59:00,63.0,63.0,30.27,ESE,113,4.0,13.0,0,0.00,,,0.00,meteohub,2013-05-07 15:59:00,
2013-05-07 12:00:00,63.1,63.1,30.27,SE,135,4.0,13.0,0,0.00,,,0.00,meteohub,2013-05-07 16:00:00,
2013-05-07 12:02:00,63.1,63.1,30.27,SE,135,4.0,13.0,0,0.00,,,0.00,meteohub,2013-05-07 16:02:00,
2013-05-07 12:04:00,63.1,63.1,30.27,SE,135,4.0,13.0,0,0.00,,,0.00,meteohub,2013-05-07 16:04:00,
2013-05-07 12:06:00,63.1,63.1,30.27,South,180,4.0,11.0,0,0.00,,,0.00,meteohub,2013-05-07 16:06:00,
2013-05-07 12:08:00,63.0,63.0,30.27,East,90,12.0,12.0,0,0.00,,,0.00,meteohub,2013-05-07 16:08:00,
2013-05-07 12:09:00,62.8,62.8,30.27,South,180,6.0,11.0,0,0.00,,,0.00,meteohub,2013-05-07 16:09:00,
2013-05-07 12:10:00,62.8,62.8,30.27,NE,45,4.0,12.0,0,0.00,,,0.00,meteohub,2013-05-07 16:10:00,
2013-05-07 12:12:00,62.8,62.8,30.27,East,90,8.0,12.0,0,0.00,,,0.00,meteohub,2013-05-07 16:12:00,
2013-05-07 12:14:00,63.0,63.0,30.27,SE,135,7.0,12.0,0,0.00,,,0.00,meteohub,2013-05-07 16:14:00,
2013-05-07 12:15:00,63.3,63.3,30.27,SE,135,9.0,12.0,0,0.00,,,0.00,meteohub,2013-05-07 16:15:00,
2013-05-07 12:18:00,63.5,63.5,30.27,East,90,5.0,12.0,0,0.00,,,0.00,meteohub,2013-05-07 16:18:00,
2013-05-07 12:19:00,63.5,63.5,30.27,East,90,5.0,12.0,0,0.00,,,0.00,meteohub,2013-05-07 16:19:00,
2013-05-07 12:20:00,63.7,63.7,30.27,East,90,8.0,12.0,0,0.00,,,0.00,meteohub,2013-05-07 16:20:00,
2013-05-07 12:22:00,63.9,63.9,30.27,SE,135,7.0,12.0,0,0.00,,,0.00,meteohub,2013-05-07 16:22:00,
2013-05-07 12:24:00,63.9,63.9,30.27,East,90,8.0,12.0,0,0.00,,,0.00,meteohub,2013-05-07 16:24:00,
2013-05-07 12:25:00,63.9,63.9,30.27,East,90,8.0,10.0,0,0.00,,,0.00,meteohub,2013-05-07 16:25:00,
2013-05-07 12:26:00,63.7,63.7,30.27,NE,45,7.0,10.0,0,0.00,,,0.00,meteohub,2013-05-07 16:26:00,
2013-05-07 12:27:00,63.7,63.7,30.27,SE,135,6.0,10.0,0,0.00,,,0.00,meteohub,2013-05-07 16:27:00,
2013-05-07 12:29:00,63.5,63.5,30.27,SE,135,20.0,20.0,0,0.00,,,0.00,meteohub,2013-05-07 16:29:00,
2013-05-07 12:31:00,63.1,63.1,30.27,SE,135,10.0,12.0,0,0.00,,,0.00,meteohub,2013-05-07 16:31:00,
2013-05-07 12:32:00,63.1,63.1,30.27,East,90,7.0,12.0,0,0.00,,,0.00,meteohub,2013-05-07 16:32:00,
2013-05-07 12:33:00,63.1,63.1,30.27,East,90,7.0,12.0,0,0.00,,,0.00,meteohub,2013-05-07 16:33:00,
2013-05-07 12:34:00,63.1,63.1,30.27,SE,135,11.0,12.0,0,0.00,,,0.00,meteohub,2013-05-07 16:34:00,
2013-05-07 12:36:00,63.1,63.1,30.27,NE,45,8.0,20.0,0,0.00,,,0.00,meteohub,2013-05-07 16:36:00,
2013-05-07 12:37:00,63.0,63.0,30.27,East,90,4.0,20.0,0,0.00,,,0.00,meteohub,2013-05-07 16:37:00,
2013-05-07 12:39:00,63.0,63.0,30.27,East,90,8.0,20.0,0,0.00,,,0.00,meteohub,2013-05-07 16:39:00,
2013-05-07 12:40:00,63.1,63.1,30.26,East,90,7.0,20.0,0,0.00,,,0.00,meteohub,2013-05-07 16:40:00,
2013-05-07 12:42:00,63.7,63.7,30.27,SE,135,7.0,20.0,0,0.00,,,0.00,meteohub,2013-05-07 16:42:00,
2013-05-07 12:43:00,63.9,63.9,30.27,East,90,6.0,20.0,0,0.00,,,0.00,meteohub,2013-05-07 16:43:00,
2013-05-07 12:45:00,64.4,64.4,30.26,SE,135,8.0,20.0,0,0.00,,,0.00,meteohub,2013-05-07 16:45:00,
2013-05-07 12:46:00,64.8,64.8,30.26,NW,315,5.0,13.0,0,0.00,,,0.00,meteohub,2013-05-07 16:46:00,
2013-05-07 12:49:00,65.1,65.1,30.26,NE,45,5.0,13.0,0,0.00,,,0.00,meteohub,2013-05-07 16:49:00,
2013-05-07 12:50:00,66.0,66.0,30.26,ESE,113,4.0,11.0,0,0.00,,,0.00,meteohub,2013-05-07 16:50:00,
2013-05-07 12:51:00,66.7,66.7,30.26,SE,135,6.0,11.0,0,0.00,,,0.00,meteohub,2013-05-07 16:51:00,
2013-05-07 12:52:00,66.7,66.7,30.26,SE,135,6.0,11.0,0,0.00,,,0.00,meteohub,2013-05-07 16:52:00,
2013-05-07 12:54:00,67.1,67.1,30.26,NE,45,8.0,11.0,0,0.00,,,0.00,meteohub,2013-05-07 16:54:00,
2013-05-07 12:56:00,66.2,66.2,30.26,SE,135,14.0,14.0,0,0.00,,,0.00,meteohub,2013-05-07 16:56:00,
2013-05-07 12:57:00,66.0,66.0,30.26,North,0,8.0,8.0,0,0.00,,,0.00,meteohub,2013-05-07 16:57:00,
2013-05-07 12:58:00,66.0,66.0,30.26,North,0,8.0,8.0,0,0.00,,,0.00,meteohub,2013-05-07 16:58:00,
2013-05-07 13:00:00,66.0,66.0,30.26,SE,135,10.0,10.0,0,0.00,,,0.00,meteohub,2013-05-07 17:00:00,
2013-05-07 13:01:00,66.0,66.0,30.26,SE,135,10.0,14.0,0,0.00,,,0.00,meteohub,2013-05-07 17:01:00,
2013-05-07 13:03:00,66.0,66.0,30.26,SE,135,10.0,14.0,0,0.00,,,0.00,meteohub,2013-05-07 17:03:00,
2013-05-07 13:04:00,66.0,66.0,30.26,SE,135,10.0,14.0,0,0.00,,,0.00,meteohub,2013-05-07 17:04:00,
2013-05-07 13:05:00,66.0,66.0,30.26,SE,135,10.0,14.0,0,0.00,,,0.00,meteohub,2013-05-07 17:05:00,
2013-05-07 13:06:00,66.0,66.0,30.26,SE,135,10.0,14.0,0,0.00,,,0.00,meteohub,2013-05-07 17:06:00,
2013-05-07 13:07:00,66.0,66.0,30.26,SE,135,10.0,14.0,0,0.00,,,0.00,meteohub,2013-05-07 17:07:00,
2013-05-07 13:08:00,66.4,66.4,30.26,NE,45,7.0,14.0,0,0.00,,,0.00,meteohub,2013-05-07 17:08:00,
2013-05-07 13:09:00,66.4,66.4,30.26,NE,45,7.0,14.0,0,0.00,,,0.00,meteohub,2013-05-07 17:09:00,
2013-05-07 13:10:00,66.2,66.2,30.26,NE,45,8.0,14.0,0,0.00,,,0.00,meteohub,2013-05-07 17:10:00,
2013-05-07 13:11:00,66.2,66.2,30.26,East,90,7.0,14.0,0,0.00,,,0.00,meteohub,2013-05-07 17:11:00,
2013-05-07 13:12:00,66.2,66.2,30.26,East,90,7.0,14.0,0,0.00,,,0.00,meteohub,2013-05-07 17:12:00,
2013-05-07 13:14:00,65.8,65.8,30.27,SE,135,4.0,14.0,0,0.00,,,0.00,meteohub,2013-05-07 17:14:00,
2013-05-07 13:15:00,66.0,66.0,30.26,East,90,8.0,10.0,0,0.00,,,0.00,meteohub,2013-05-07 17:15:00,
2013-05-07 13:16:00,66.0,66.0,30.26,South,180,11.0,11.0,0,0.00,,,0.00,meteohub,2013-05-07 17:16:00,
2013-05-07 13:17:00,66.2,66.2,30.26,NE,45,5.0,10.0,0,0.00,,,0.00,meteohub,2013-05-07 17:17:00,
2013-05-07 13:18:00,66.2,66.2,30.26,NE,45,5.0,10.0,0,0.00,,,0.00,meteohub,2013-05-07 17:18:00,
2013-05-07 13:20:00,65.5,65.5,30.26,SE,135,14.0,14.0,0,0.00,,,0.00,meteohub,2013-05-07 17:20:00,
2013-05-07 13:22:00,65.3,65.3,30.26,SE,135,12.0,12.0,0,0.00,,,0.00,meteohub,2013-05-07 17:22:00,
2013-05-07 13:24:00,64.8,64.8,30.26,East,90,10.0,11.0,0,0.00,,,0.00,meteohub,2013-05-07 17:24:00,
2013-05-07 13:25:00,64.6,64.6,30.26,East,90,14.0,14.0,0,0.00,,,0.00,meteohub,2013-05-07 17:25:00,
2013-05-07 13:26:00,64.4,64.4,30.25,SE,135,13.0,15.0,0,0.00,,,0.00,meteohub,2013-05-07 17:26:00,
2013-05-07 13:27:00,64.4,64.4,30.25,SE,135,13.0,15.0,0,0.00,,,0.00,meteohub,2013-05-07 17:27:00,
2013-05-07 13:29:00,64.4,64.4,30.25,SE,135,4.0,15.0,0,0.00,,,0.00,meteohub,2013-05-07 17:29:00,
2013-05-07 13:30:00,64.6,64.6,30.25,East,90,6.0,15.0,0,0.00,,,0.00,meteohub,2013-05-07 17:30:00,
2013-05-07 13:32:00,65.1,65.1,30.25,East,90,5.0,15.0,0,0.00,,,0.00,meteohub,2013-05-07 17:32:00,
2013-05-07 13:34:00,65.7,65.7,30.25,NE,45,10.0,15.0,0,0.00,,,0.00,meteohub,2013-05-07 17:34:00,
2013-05-07 13:35:00,65.7,65.7,30.25,East,90,8.0,15.0,0,0.00,,,0.00,meteohub,2013-05-07 17:35:00,
2013-05-07 13:36:00,65.8,65.8,30.25,East,90,14.0,15.0,0,0.00,,,0.00,meteohub,2013-05-07 17:36:00,
2013-05-07 13:38:00,65.8,65.8,30.25,East,90,11.0,15.0,0,0.00,,,0.00,meteohub,2013-05-07 17:38:00,
2013-05-07 13:39:00,66.0,66.0,30.25,East,90,11.0,15.0,0,0.00,,,0.00,meteohub,2013-05-07 17:39:00,
2013-05-07 13:40:00,66.0,66.0,30.25,East,90,8.0,14.0,0,0.00,,,0.00,meteohub,2013-05-07 17:40:00,
2013-05-07 13:42:00,66.2,66.2,30.25,NE,45,7.0,14.0,0,0.00,,,0.00,meteohub,2013-05-07 17:42:00,
2013-05-07 13:44:00,66.4,66.4,30.25,East,90,11.0,14.0,0,0.00,,,0.00,meteohub,2013-05-07 17:44:00,
2013-05-07 13:46:00,66.2,66.2,30.25,East,90,11.0,14.0,0,0.00,,,0.00,meteohub,2013-05-07 17:46:00,
2013-05-07 13:48:00,66.2,66.2,30.25,East,90,8.0,14.0,0,0.00,,,0.00,meteohub,2013-05-07 17:48:00,
2013-05-07 13:49:00,66.4,66.4,30.25,NE,45,8.0,14.0,0,0.00,,,0.00,meteohub,2013-05-07 17:49:00,
2013-05-07 13:50:00,66.4,66.4,30.25,SE,135,7.0,14.0,0,0.00,,,0.00,meteohub,2013-05-07 17:50:00,
2013-05-07 13:51:00,66.6,66.6,30.25,East,90,5.0,14.0,0,0.00,,,0.00,meteohub,2013-05-07 17:51:00,
2013-05-07 13:52:00,66.6,66.6,30.25,SE,135,13.0,14.0,0,0.00,,,0.00,meteohub,2013-05-07 17:52:00,
2013-05-07 13:54:00,66.9,66.9,30.25,SE,135,12.0,14.0,0,0.00,,,0.00,meteohub,2013-05-07 17:54:00,
2013-05-07 13:56:00,67.5,67.5,30.25,East,90,6.0,13.0,0,0.00,,,0.00,meteohub,2013-05-07 17:56:00,
2013-05-07 13:58:00,67.6,67.6,30.25,East,90,8.0,13.0,0,0.00,,,0.00,meteohub,2013-05-07 17:58:00,
2013-05-07 13:59:00,67.6,67.6,30.25,NE,45,10.0,13.0,0,0.00,,,0.00,meteohub,2013-05-07 17:59:00,
2013-05-07 14:01:00,67.6,67.6,30.25,South,180,6.0,13.0,0,0.00,,,0.00,meteohub,2013-05-07 18:01:00,
2013-05-07 14:02:00,67.6,67.6,30.25,South,180,6.0,13.0,0,0.00,,,0.00,meteohub,2013-05-07 18:02:00,
2013-05-07 14:04:00,67.6,67.6,30.25,South,180,6.0,13.0,0,0.00,,,0.00,meteohub,2013-05-07 18:04:00,
2013-05-07 14:05:00,67.6,67.6,30.25,South,180,6.0,13.0,0,0.00,,,0.00,meteohub,2013-05-07 18:05:00,
2013-05-07 14:06:00,67.6,67.6,30.25,South,180,6.0,13.0,0,0.00,,,0.00,meteohub,2013-05-07 18:06:00,
2013-05-07 14:09:00,66.7,66.7,30.25,East,90,8.0,13.0,0,0.00,,,0.00,meteohub,2013-05-07 18:09:00,
2013-05-07 14:10:00,66.7,66.7,30.24,SE,135,6.0,11.0,0,0.00,,,0.00,meteohub,2013-05-07 18:10:00,
2013-05-07 14:12:00,66.7,66.7,30.25,NE,45,14.0,14.0,0,0.00,,,0.00,meteohub,2013-05-07 18:12:00,
2013-05-07 14:15:00,67.1,67.1,30.24,SE,135,12.0,12.0,0,0.00,,,0.00,meteohub,2013-05-07 18:15:00,
2013-05-07 14:17:00,67.1,67.1,30.25,East,90,6.0,14.0,0,0.00,,,0.00,meteohub,2013-05-07 18:17:00,
2013-05-07 14:18:00,67.1,67.1,30.25,East,90,6.0,14.0,0,0.00,,,0.00,meteohub,2013-05-07 18:18:00,
2013-05-07 14:21:00,67.1,67.1,30.25,SE,135,7.0,14.0,0,0.00,,,0.00,meteohub,2013-05-07 18:21:00,
2013-05-07 14:23:00,67.1,67.1,30.24,East,90,9.0,14.0,0,0.00,,,0.00,meteohub,2013-05-07 18:23:00,
2013-05-07 14:24:00,67.1,67.1,30.24,SE,135,6.0,14.0,0,0.00,,,0.00,meteohub,2013-05-07 18:24:00,
2013-05-07 14:26:00,66.9,66.9,30.24,NE,45,4.0,14.0,0,0.00,,,0.00,meteohub,2013-05-07 18:26:00,
2013-05-07 14:27:00,66.7,66.7,30.24,WSW,248,5.0,14.0,0,0.00,,,0.00,meteohub,2013-05-07 18:27:00,
2013-05-07 14:28:00,66.7,66.7,30.24,East,90,11.0,14.0,0,0.00,,,0.00,meteohub,2013-05-07 18:28:00,
2013-05-07 14:29:00,66.7,66.7,30.24,East,90,8.0,14.0,0,0.00,,,0.00,meteohub,2013-05-07 18:29:00,
2013-05-07 14:32:00,66.6,66.6,30.24,East,90,5.0,12.0,0,0.00,,,0.00,meteohub,2013-05-07 18:32:00,
2013-05-07 14:34:00,66.7,66.7,30.24,NW,315,6.0,12.0,0,0.00,,,0.00,meteohub,2013-05-07 18:34:00,
2013-05-07 14:35:00,66.7,66.7,30.24,East,90,5.0,12.0,0,0.00,,,0.00,meteohub,2013-05-07 18:35:00,
2013-05-07 14:36:00,66.7,66.7,30.24,East,90,5.0,11.0,0,0.00,,,0.00,meteohub,2013-05-07 18:36:00,
2013-05-07 14:38:00,66.7,66.7,30.24,East,90,11.0,11.0,0,0.00,,,0.00,meteohub,2013-05-07 18:38:00,
2013-05-07 14:39:00,66.6,66.6,30.24,WNW,293,7.0,11.0,0,0.00,,,0.00,meteohub,2013-05-07 18:39:00,
2013-05-07 14:40:00,66.6,66.6,30.24,South,180,8.0,16.0,0,0.00,,,0.00,meteohub,2013-05-07 18:40:00,
2013-05-07 14:42:00,66.6,66.6,30.24,East,90,15.0,16.0,0,0.00,,,0.00,meteohub,2013-05-07 18:42:00,
2013-05-07 14:43:00,66.6,66.6,30.24,East,90,8.0,16.0,0,0.00,,,0.00,meteohub,2013-05-07 18:43:00,
2013-05-07 14:45:00,66.7,66.7,30.24,SE,135,8.0,16.0,0,0.00,,,0.00,meteohub,2013-05-07 18:45:00,
2013-05-07 14:48:00,66.9,66.9,30.24,East,90,8.0,16.0,0,0.00,,,0.00,meteohub,2013-05-07 18:48:00,
2013-05-07 14:50:00,66.9,66.9,30.24,North,0,5.0,16.0,0,0.00,,,0.00,meteohub,2013-05-07 18:50:00,
2013-05-07 14:51:00,67.1,67.1,30.24,South,180,8.0,16.0,0,0.00,,,0.00,meteohub,2013-05-07 18:51:00,
2013-05-07 14:52:00,67.1,67.1,30.24,SE,135,4.0,16.0,0,0.00,,,0.00,meteohub,2013-05-07 18:52:00,
2013-05-07 14:53:00,67.1,67.1,30.24,East,90,7.0,16.0,0,0.00,,,0.00,meteohub,2013-05-07 18:53:00,
2013-05-07 14:54:00,67.1,67.1,30.24,SE,135,4.0,16.0,0,0.00,,,0.00,meteohub,2013-05-07 18:54:00,
2013-05-07 14:55:00,67.1,67.1,30.24,SE,135,6.0,15.0,0,0.00,,,0.00,meteohub,2013-05-07 18:55:00,
2013-05-07 14:58:00,66.9,66.9,30.24,South,180,5.0,15.0,0,0.00,,,0.00,meteohub,2013-05-07 18:58:00,
2013-05-07 14:59:00,66.7,66.7,30.23,East,90,5.0,15.0,0,0.00,,,0.00,meteohub,2013-05-07 18:59:00,
2013-05-07 15:00:00,66.7,66.7,30.24,East,90,5.0,8.0,0,0.00,,,0.00,meteohub,2013-05-07 19:00:00,
2013-05-07 15:03:00,66.7,66.7,30.24,East,90,5.0,8.0,0,0.00,,,0.00,meteohub,2013-05-07 19:03:00,
2013-05-07 15:05:00,66.7,66.7,30.24,East,90,5.0,8.0,0,0.00,,,0.00,meteohub,2013-05-07 19:05:00,
2013-05-07 15:06:00,66.7,66.7,30.24,East,90,5.0,8.0,0,0.00,,,0.00,meteohub,2013-05-07 19:06:00,
2013-05-07 15:08:00,66.7,66.7,30.23,East,90,5.0,8.0,0,0.00,,,0.00,meteohub,2013-05-07 19:08:00,
2013-05-07 15:10:00,67.1,67.1,30.23,East,90,4.0,6.0,0,0.00,,,0.00,meteohub,2013-05-07 19:10:00,
2013-05-07 15:11:00,67.5,67.5,30.23,SE,135,8.0,8.0,0,0.00,,,0.00,meteohub,2013-05-07 19:11:00,
2013-05-07 15:12:00,67.5,67.5,30.24,South,180,11.0,11.0,0,0.00,,,0.00,meteohub,2013-05-07 19:12:00,
2013-05-07 15:13:00,67.1,67.1,30.23,NE,45,7.0,7.0,0,0.00,,,0.00,meteohub,2013-05-07 19:13:00,
2013-05-07 15:16:00,66.9,66.9,30.23,SE,135,5.0,16.0,0,0.00,,,0.00,meteohub,2013-05-07 19:16:00,
2013-05-07 15:17:00,66.9,66.9,30.24,SE,135,8.0,16.0,0,0.00,,,0.00,meteohub,2013-05-07 19:17:00,
2013-05-07 15:19:00,67.3,67.3,30.23,SE,135,8.0,16.0,0,0.00,,,0.00,meteohub,2013-05-07 19:19:00,
2013-05-07 15:20:00,67.3,67.3,30.23,SE,135,8.0,16.0,0,0.00,,,0.00,meteohub,2013-05-07 19:20:00,
2013-05-07 15:21:00,67.3,67.3,30.23,South,180,6.0,16.0,0,0.00,,,0.00,meteohub,2013-05-07 19:21:00,
2013-05-07 15:22:00,67.3,67.3,30.23,SE,135,4.0,16.0,0,0.00,,,0.00,meteohub,2013-05-07 19:22:00,
2013-05-07 15:24:00,67.1,67.1,30.23,West,270,6.0,16.0,0,0.00,,,0.00,meteohub,2013-05-07 19:24:00,
2013-05-07 15:26:00,66.6,66.6,30.23,South,180,6.0,16.0,0,0.00,,,0.00,meteohub,2013-05-07 19:26:00,
2013-05-07 15:27:00,66.6,66.6,30.23,East,90,8.0,16.0,0,0.00,,,0.00,meteohub,2013-05-07 19:27:00,
2013-05-07 15:28:00,66.4,66.4,30.23,East,90,4.0,16.0,0,0.00,,,0.00,meteohub,2013-05-07 19:28:00,
2013-05-07 15:31:00,66.0,66.0,30.23,East,90,6.0,8.0,0,0.00,,,0.00,meteohub,2013-05-07 19:31:00,
2013-05-07 15:32:00,65.8,65.8,30.23,SE,135,4.0,8.0,0,0.00,,,0.00,meteohub,2013-05-07 19:32:00,
2013-05-07 15:33:00,65.7,65.7,30.23,East,90,4.0,8.0,0,0.00,,,0.00,meteohub,2013-05-07 19:33:00,
2013-05-07 15:34:00,65.7,65.7,30.23,East,90,4.0,8.0,0,0.00,,,0.00,meteohub,2013-05-07 19:34:00,
2013-05-07 15:37:00,65.1,65.1,30.23,NE,45,8.0,8.0,0,0.00,,,0.00,meteohub,2013-05-07 19:37:00,
2013-05-07 15:38:00,65.1,65.1,30.23,NE,45,8.0,8.0,0,0.00,,,0.00,meteohub,2013-05-07 19:38:00,
2013-05-07 15:39:00,64.9,64.9,30.23,East,90,4.0,8.0,0,0.00,,,0.00,meteohub,2013-05-07 19:39:00,
2013-05-07 15:43:00,64.8,64.8,30.23,SE,135,5.0,8.0,0,0.00,,,0.00,meteohub,2013-05-07 19:43:00,
2013-05-07 15:44:00,64.8,64.8,30.23,SE,135,8.0,8.0,0,0.00,,,0.00,meteohub,2013-05-07 19:44:00,
2013-05-07 15:45:00,64.6,64.6,30.23,East,90,7.0,8.0,0,0.00,,,0.00,meteohub,2013-05-07 19:45:00,
2013-05-07 15:48:00,64.6,64.6,30.23,East,90,8.0,8.0,0,0.00,,,0.00,meteohub,2013-05-07 19:48:00,
2013-05-07 15:49:00,64.6,64.6,30.23,SE,135,4.0,8.0,0,0.00,,,0.00,meteohub,2013-05-07 19:49:00,
2013-05-07 15:50:00,64.4,64.4,30.23,East,90,5.0,8.0,0,0.00,,,0.00,meteohub,2013-05-07 19:50:00,
2013-05-07 15:51:00,64.4,64.4,30.23,East,90,4.0,8.0,0,0.00,,,0.00,meteohub,2013-05-07 19:51:00,
2013-05-07 15:53:00,64.4,64.4,30.23,North,0,6.0,8.0,0,0.00,,,0.00,meteohub,2013-05-07 19:53:00,
2013-05-07 15:54:00,64.4,64.4,30.23,East,90,5.0,8.0,0,0.00,,,0.00,meteohub,2013-05-07 19:54:00,
2013-05-07 15:55:00,64.4,64.4,30.23,SE,135,5.0,8.0,0,0.00,,,0.00,meteohub,2013-05-07 19:55:00,
2013-05-07 15:56:00,64.6,64.6,30.22,East,90,6.0,8.0,0,0.00,,,0.00,meteohub,2013-05-07 19:56:00,
2013-05-07 15:57:00,64.6,64.6,30.23,East,90,4.0,8.0,0,0.00,,,0.00,meteohub,2013-05-07 19:57:00,
2013-05-07 15:59:00,64.8,64.8,30.22,East,90,5.0,8.0,0,0.00,,,0.00,meteohub,2013-05-07 19:59:00,
2013-05-07 16:00:00,64.9,64.9,30.22,NE,45,4.0,8.0,0,0.00,,,0.00,meteohub,2013-05-07 20:00:00,
2013-05-07 16:02:00,64.9,64.9,30.23,NE,45,4.0,8.0,0,0.00,,,0.00,meteohub,2013-05-07 20:02:00,
2013-05-07 16:04:00,64.9,64.9,30.22,NE,45,4.0,8.0,0,0.00,,,0.00,meteohub,2013-05-07 20:04:00,
2013-05-07 16:06:00,64.9,64.9,30.22,NE,45,4.0,6.0,0,0.00,,,0.00,meteohub,2013-05-07 20:06:00,
2013-05-07 16:08:00,64.9,64.9,30.22,NE,45,4.0,6.0,0,0.00,,,0.00,meteohub,2013-05-07 20:08:00,
2013-05-07 16:10:00,65.1,65.1,30.22,East,90,8.0,8.0,0,0.00,,,0.00,meteohub,2013-05-07 20:10:00,
2013-05-07 16:12:00,64.8,64.8,30.22,East,90,11.0,11.0,0,0.00,,,0.00,meteohub,2013-05-07 20:12:00,
2013-05-07 16:13:00,64.4,64.4,30.22,East,90,8.0,8.0,0,0.00,,,0.00,meteohub,2013-05-07 20:13:00,
2013-05-07 16:15:00,64.0,64.0,30.22,South,180,2.0,13.0,0,0.00,,,0.00,meteohub,2013-05-07 20:15:00,
2013-05-07 16:17:00,63.9,63.9,30.22,East,90,4.0,13.0,0,0.00,,,0.00,meteohub,2013-05-07 20:17:00,
2013-05-07 16:18:00,63.9,63.9,30.22,East,90,4.0,13.0,0,0.00,,,0.00,meteohub,2013-05-07 20:18:00,
2013-05-07 16:21:00,63.7,63.7,30.22,East,90,3.0,13.0,0,0.00,,,0.00,meteohub,2013-05-07 20:21:00,
2013-05-07 16:23:00,63.5,63.5,30.22,SE,135,4.0,13.0,0,0.00,,,0.00,meteohub,2013-05-07 20:23:00,
2013-05-07 16:24:00,63.5,63.5,30.22,SE,135,4.0,13.0,0,0.00,,,0.00,meteohub,2013-05-07 20:24:00,
2013-05-07 16:25:00,63.5,63.5,30.22,SE,135,4.0,13.0,0,0.00,,,0.00,meteohub,2013-05-07 20:25:00,
2013-05-07 16:26:00,63.3,63.3,30.22,SE,135,4.0,13.0,0,0.00,,,0.00,meteohub,2013-05-07 20:26:00,
2013-05-07 16:29:00,63.3,63.3,30.22,East,90,3.0,13.0,0,0.00,,,0.00,meteohub,2013-05-07 20:29:00,
2013-05-07 16:30:00,63.3,63.3,30.22,SE,135,2.0,13.0,0,0.00,,,0.00,meteohub,2013-05-07 20:30:00,
2013-05-07 16:31:00,63.3,63.3,30.22,NE,45,4.0,9.0,0,0.00,,,0.00,meteohub,2013-05-07 20:31:00,
2013-05-07 16:34:00,63.3,63.3,30.22,SE,135,4.0,9.0,0,0.00,,,0.00,meteohub,2013-05-07 20:34:00,
2013-05-07 16:35:00,63.3,63.3,30.22,SE,135,4.0,9.0,0,0.00,,,0.00,meteohub,2013-05-07 20:35:00,
2013-05-07 16:36:00,63.3,63.3,30.22,SE,135,4.0,5.0,0,0.00,,,0.00,meteohub,2013-05-07 20:36:00,
2013-05-07 16:37:00,63.3,63.3,30.22,East,90,4.0,5.0,0,0.00,,,0.00,meteohub,2013-05-07 20:37:00,
2013-05-07 16:40:00,63.7,63.7,30.22,SE,135,3.0,5.0,0,0.00,,,0.00,meteohub,2013-05-07 20:40:00,
2013-05-07 16:41:00,63.7,63.7,30.22,East,90,3.0,5.0,0,0.00,,,0.00,meteohub,2013-05-07 20:41:00,
2013-05-07 16:42:00,63.9,63.9,30.22,NE,45,4.0,5.0,0,0.00,,,0.00,meteohub,2013-05-07 20:42:00,
2013-05-07 16:45:00,64.2,64.2,30.22,East,90,2.0,5.0,0,0.00,,,0.00,meteohub,2013-05-07 20:45:00,
2013-05-07 16:46:00,64.2,64.2,30.22,East,90,4.0,5.0,0,0.00,,,0.00,meteohub,2013-05-07 20:46:00,
2013-05-07 16:47:00,64.2,64.2,30.22,East,90,6.0,6.0,0,0.00,,,0.00,meteohub,2013-05-07 20:47:00,
2013-05-07 16:49:00,64.2,64.2,30.22,NE,45,3.0,5.0,0,0.00,,,0.00,meteohub,2013-05-07 20:49:00,
2013-05-07 16:50:00,64.2,64.2,30.22,East,90,3.0,6.0,0,0.00,,,0.00,meteohub,2013-05-07 20:50:00,
2013-05-07 16:51:00,64.4,64.4,30.22,East,90,4.0,6.0,0,0.00,,,0.00,meteohub,2013-05-07 20:51:00,
2013-05-07 16:53:00,64.4,64.4,30.22,East,90,4.0,6.0,0,0.00,,,0.00,meteohub,2013-05-07 20:53:00,
2013-05-07 16:54:00,64.6,64.6,30.22,East,90,5.0,6.0,0,0.00,,,0.00,meteohub,2013-05-07 20:54:00,
2013-05-07 16:55:00,64.6,64.6,30.22,NE,45,6.0,6.0,0,0.00,,,0.00,meteohub,2013-05-07 20:55:00,
2013-05-07 16:56:00,64.6,64.6,30.22,South,180,6.0,8.0,0,0.00,,,0.00,meteohub,2013-05-07 20:56:00,
2013-05-07 16:57:00,64.6,64.6,30.22,SE,135,4.0,8.0,0,0.00,,,0.00,meteohub,2013-05-07 20:57:00,
2013-05-07 16:59:00,64.8,64.8,30.22,SE,135,4.0,8.0,0,0.00,,,0.00,meteohub,2013-05-07 20:59:00,
2013-05-07 17:00:00,64.9,64.9,30.21,SE,135,5.0,8.0,0,0.00,,,0.00,meteohub,2013-05-07 21:00:00,
2013-05-07 17:01:00,64.9,64.9,30.21,SE,135,5.0,10.0,0,0.00,,,0.00,meteohub,2013-05-07 21:01:00,
2013-05-07 17:02:00,65.1,65.1,30.21,East,90,8.0,10.0,0,0.00,,,0.00,meteohub,2013-05-07 21:02:00,
2013-05-07 17:04:00,65.1,65.1,30.21,East,90,10.0,10.0,0,0.00,,,0.00,meteohub,2013-05-07 21:04:00,
2013-05-07 17:06:00,65.1,65.1,30.22,SE,135,6.0,10.0,0,0.00,,,0.00,meteohub,2013-05-07 21:06:00,
2013-05-07 17:07:00,65.1,65.1,30.21,NE,45,8.0,10.0,0,0.00,,,0.00,meteohub,2013-05-07 21:07:00,
2013-05-07 17:08:00,64.9,64.9,30.21,NE,45,8.0,10.0,0,0.00,,,0.00,meteohub,2013-05-07 21:08:00,
2013-05-07 17:09:00,64.9,64.9,30.21,East,90,11.0,11.0,0,0.00,,,0.00,meteohub,2013-05-07 21:09:00,
2013-05-07 17:10:00,64.8,64.8,30.22,SE,135,14.0,14.0,0,0.00,,,0.00,meteohub,2013-05-07 21:10:00,
2013-05-07 17:11:00,64.8,64.8,30.21,SE,135,6.0,11.0,0,0.00,,,0.00,meteohub,2013-05-07 21:11:00,
2013-05-07 17:12:00,64.8,64.8,30.21,East,90,8.0,11.0,0,0.00,,,0.00,meteohub,2013-05-07 21:12:00,
2013-05-07 17:14:00,64.6,64.6,30.21,South,180,6.0,11.0,0,0.00,,,0.00,meteohub,2013-05-07 21:14:00,
2013-05-07 17:16:00,64.6,64.6,30.21,East,90,8.0,14.0,0,0.00,,,0.00,meteohub,2013-05-07 21:16:00,
2013-05-07 17:17:00,64.6,64.6,30.22,East,90,8.0,14.0,0,0.00,,,0.00,meteohub,2013-05-07 21:17:00,
2013-05-07 17:18:00,64.6,64.6,30.21,East,90,8.0,14.0,0,0.00,,,0.00,meteohub,2013-05-07 21:18:00,
2013-05-07 17:19:00,64.6,64.6,30.22,East,90,8.0,14.0,0,0.00,,,0.00,meteohub,2013-05-07 21:19:00,
2013-05-07 17:20:00,64.6,64.6,30.22,East,90,8.0,14.0,0,0.00,,,0.00,meteohub,2013-05-07 21:20:00,
2013-05-07 17:21:00,64.6,64.6,30.21,East,90,4.0,14.0,0,0.00,,,0.00,meteohub,2013-05-07 21:21:00,
2013-05-07 17:22:00,64.6,64.6,30.22,East,90,5.0,14.0,0,0.00,,,0.00,meteohub,2013-05-07 21:22:00,
2013-05-07 17:24:00,64.6,64.6,30.21,SE,135,4.0,14.0,0,0.00,,,0.00,meteohub,2013-05-07 21:24:00,
2013-05-07 17:25:00,64.6,64.6,30.22,East,90,3.0,14.0,0,0.00,,,0.00,meteohub,2013-05-07 21:25:00,
2013-05-07 17:27:00,64.6,64.6,30.22,NE,45,11.0,14.0,0,0.00,,,0.00,meteohub,2013-05-07 21:27:00,
2013-05-07 17:28:00,64.6,64.6,30.21,East,90,7.0,14.0,0,0.00,,,0.00,meteohub,2013-05-07 21:28:00,
2013-05-07 17:30:00,64.4,64.4,30.21,East,90,8.0,11.0,0,0.00,,,0.00,meteohub,2013-05-07 21:30:00,
2013-05-07 17:31:00,64.4,64.4,30.21,East,90,8.0,11.0,0,0.00,,,0.00,meteohub,2013-05-07 21:31:00,
2013-05-07 17:33:00,64.2,64.2,30.22,East,90,5.0,11.0,0,0.00,,,0.00,meteohub,2013-05-07 21:33:00,
2013-05-07 17:36:00,64.0,64.0,30.21,ESE,113,4.0,11.0,0,0.00,,,0.00,meteohub,2013-05-07 21:36:00,
2013-05-07 17:38:00,63.9,63.9,30.21,SSE,158,5.0,11.0,0,0.00,,,0.00,meteohub,2013-05-07 21:38:00,
2013-05-07 17:39:00,63.9,63.9,30.21,WSW,248,7.0,11.0,0,0.00,,,0.00,meteohub,2013-05-07 21:39:00,
2013-05-07 17:41:00,63.7,63.7,30.21,East,90,4.0,11.0,0,0.00,,,0.00,meteohub,2013-05-07 21:41:00,
2013-05-07 17:42:00,63.7,63.7,30.22,East,90,2.0,11.0,0,0.00,,,0.00,meteohub,2013-05-07 21:42:00,
2013-05-07 17:44:00,63.7,63.7,30.22,East,90,6.0,11.0,0,0.00,,,0.00,meteohub,2013-05-07 21:44:00,
2013-05-07 17:45:00,63.7,63.7,30.21,SE,135,4.0,11.0,0,0.00,,,0.00,meteohub,2013-05-07 21:45:00,
2013-05-07 17:47:00,63.7,63.7,30.22,East,90,5.0,9.0,0,0.00,,,0.00,meteohub,2013-05-07 21:47:00,
2013-05-07 17:50:00,63.7,63.7,30.22,East,90,4.0,9.0,0,0.00,,,0.00,meteohub,2013-05-07 21:50:00,
2013-05-07 17:54:00,63.5,63.5,30.22,East,90,5.0,7.0,0,0.00,,,0.00,meteohub,2013-05-07 21:54:00,
2013-05-07 17:55:00,63.5,63.5,30.21,South,180,4.0,7.0,0,0.00,,,0.00,meteohub,2013-05-07 21:55:00,
2013-05-07 17:57:00,63.3,63.3,30.22,East,90,5.0,7.0,0,0.00,,,0.00,meteohub,2013-05-07 21:57:00,
2013-05-07 18:00:00,63.1,63.1,30.22,East,90,4.0,7.0,0,0.00,,,0.00,meteohub,2013-05-07 22:00:00,
2013-05-07 18:01:00,63.1,63.1,30.22,East,90,5.0,7.0,0,0.00,,,0.00,meteohub,2013-05-07 22:01:00,
2013-05-07 18:02:00,63.0,63.0,30.22,SE,135,7.0,7.0,0,0.00,,,0.00,meteohub,2013-05-07 22:02:00,
2013-05-07 18:03:00,63.0,63.0,30.22,SE,135,7.0,7.0,0,0.00,,,0.00,meteohub,2013-05-07 22:03:00,
2013-05-07 18:05:00,62.8,62.8,30.22,East,90,7.0,10.0,0,0.00,,,0.00,meteohub,2013-05-07 22:05:00,
2013-05-07 18:07:00,62.4,62.4,30.22,East,90,4.0,10.0,0,0.00,,,0.00,meteohub,2013-05-07 22:07:00,
2013-05-07 18:09:00,62.4,62.4,30.22,SE,135,5.0,10.0,0,0.00,,,0.00,meteohub,2013-05-07 22:09:00,
2013-05-07 18:10:00,62.2,62.2,30.21,East,90,4.0,10.0,0,0.00,,,0.00,meteohub,2013-05-07 22:10:00,
2013-05-07 18:11:00,62.2,62.2,30.22,East,90,4.0,10.0,0,0.00,,,0.00,meteohub,2013-05-07 22:11:00,
2013-05-07 18:13:00,62.2,62.2,30.22,SE,135,3.0,10.0,0,0.00,,,0.00,meteohub,2013-05-07 22:13:00,
2013-05-07 18:14:00,62.1,62.1,30.22,SE,135,4.0,10.0,0,0.00,,,0.00,meteohub,2013-05-07 22:14:00,
2013-05-07 18:17:00,61.9,61.9,30.22,East,90,4.0,10.0,0,0.00,,,0.00,meteohub,2013-05-07 22:17:00,
2013-05-07 18:18:00,61.7,61.7,30.22,East,90,8.0,10.0,0,0.00,,,0.00,meteohub,2013-05-07 22:18:00,
2013-05-07 18:19:00,61.7,61.7,30.22,East,90,8.0,10.0,0,0.00,,,0.00,meteohub,2013-05-07 22:19:00,
2013-05-07 18:20:00,61.3,61.3,30.22,East,90,4.0,8.0,0,0.00,,,0.00,meteohub,2013-05-07 22:20:00,
2013-05-07 18:22:00,61.3,61.3,30.22,SE,135,5.0,8.0,0,0.00,,,0.00,meteohub,2013-05-07 22:22:00,
2013-05-07 18:24:00,61.0,61.0,30.22,SE,135,5.0,8.0,0,0.00,,,0.00,meteohub,2013-05-07 22:24:00,
2013-05-07 18:26:00,60.8,60.8,30.22,East,90,5.0,8.0,0,0.00,,,0.00,meteohub,2013-05-07 22:26:00,
2013-05-07 18:27:00,60.8,60.8,30.22,SE,135,7.0,8.0,0,0.00,,,0.00,meteohub,2013-05-07 22:27:00,
2013-05-07 18:29:00,60.6,60.6,30.22,East,90,8.0,8.0,0,0.00,,,0.00,meteohub,2013-05-07 22:29:00,
2013-05-07 18:31:00,60.6,60.6,30.22,South,180,4.0,13.0,0,0.00,,,0.00,meteohub,2013-05-07 22:31:00,
2013-05-07 18:32:00,60.4,60.4,30.22,East,90,4.0,13.0,0,0.00,,,0.00,meteohub,2013-05-07 22:32:00,
2013-05-07 18:35:00,60.4,60.4,30.21,SE,135,7.0,13.0,0,0.00,,,0.00,meteohub,2013-05-07 22:35:00,
2013-05-07 18:37:00,60.3,60.3,30.22,East,90,4.0,13.0,0,0.00,,,0.00,meteohub,2013-05-07 22:37:00,
2013-05-07 18:38:00,60.3,60.3,30.21,East,90,4.0,13.0,0,0.00,,,0.00,meteohub,2013-05-07 22:38:00,
2013-05-07 18:39:00,60.3,60.3,30.22,East,90,4.0,13.0,0,0.00,,,0.00,meteohub,2013-05-07 22:39:00,
2013-05-07 18:42:00,59.9,59.9,30.21,South,180,8.0,8.0,0,0.00,,,0.00,meteohub,2013-05-07 22:42:00,
2013-05-07 18:43:00,59.9,59.9,30.21,East,90,9.0,9.0,0,0.00,,,0.00,meteohub,2013-05-07 22:43:00,
2013-05-07 18:44:00,59.7,59.7,30.21,NE,45,5.0,8.0,0,0.00,,,0.00,meteohub,2013-05-07 22:44:00,
2013-05-07 18:45:00,59.7,59.7,30.21,East,90,3.0,9.0,0,0.00,,,0.00,meteohub,2013-05-07 22:45:00,
2013-05-07 18:48:00,59.5,59.5,30.21,East,90,8.0,9.0,0,0.00,,,0.00,meteohub,2013-05-07 22:48:00,
2013-05-07 18:49:00,59.5,59.5,30.21,East,90,8.0,9.0,0,0.00,,,0.00,meteohub,2013-05-07 22:49:00,
2013-05-07 18:51:00,59.5,59.5,30.21,East,90,10.0,10.0,0,0.00,,,0.00,meteohub,2013-05-07 22:51:00,
2013-05-07 18:54:00,59.4,59.4,30.21,East,90,6.0,9.0,0,0.00,,,0.00,meteohub,2013-05-07 22:54:00,
2013-05-07 18:55:00,59.4,59.4,30.21,East,90,6.0,10.0,0,0.00,,,0.00,meteohub,2013-05-07 22:55:00,
2013-05-07 18:57:00,59.4,59.4,30.21,East,90,11.0,11.0,0,0.00,,,0.00,meteohub,2013-05-07 22:57:00,
2013-05-07 18:59:00,59.4,59.4,30.21,East,90,3.0,10.0,0,0.00,,,0.00,meteohub,2013-05-07 22:59:00,
2013-05-07 19:00:00,59.4,59.4,30.21,NE,45,10.0,10.0,0,0.00,,,0.00,meteohub,2013-05-07 23:00:00,
2013-05-07 19:01:00,59.4,59.4,30.21,East,90,10.0,11.0,0,0.00,,,0.00,meteohub,2013-05-07 23:01:00,
2013-05-07 19:02:00,59.4,59.4,30.20,South,180,8.0,11.0,0,0.00,,,0.00,meteohub,2013-05-07 23:02:00,
2013-05-07 19:05:00,59.4,59.4,30.22,East,90,13.0,13.0,0,0.00,,,0.00,meteohub,2013-05-07 23:05:00,
2013-05-07 19:06:00,59.4,59.4,30.22,East,90,12.0,15.0,0,0.00,,,0.00,meteohub,2013-05-07 23:06:00,
2013-05-07 19:08:00,59.4,59.4,30.21,East,90,8.0,15.0,0,0.00,,,0.00,meteohub,2013-05-07 23:08:00,
2013-05-07 19:11:00,59.4,59.4,30.21,East,90,5.0,15.0,0,0.00,,,0.00,meteohub,2013-05-07 23:11:00,
2013-05-07 19:13:00,59.4,59.4,30.21,SE,135,6.0,15.0,0,0.00,,,0.00,meteohub,2013-05-07 23:13:00,
2013-05-07 19:14:00,59.2,59.2,30.21,East,90,13.0,15.0,0,0.00,,,0.00,meteohub,2013-05-07 23:14:00,
2013-05-07 19:16:00,59.2,59.2,30.21,South,180,9.0,15.0,0,0.00,,,0.00,meteohub,2013-05-07 23:16:00,
2013-05-07 19:17:00,59.2,59.2,30.21,East,90,11.0,15.0,0,0.00,,,0.00,meteohub,2013-05-07 23:17:00,
2013-05-07 19:19:00,59.2,59.2,30.22,NE,45,8.0,15.0,0,0.00,,,0.00,meteohub,2013-05-07 23:19:00,
2013-05-07 19:21:00,59.2,59.2,30.21,North,0,8.0,13.0,0,0.00,,,0.00,meteohub,2013-05-07 23:21:00,
2013-05-07 19:22:00,59.2,59.2,30.21,North,0,8.0,13.0,0,0.00,,,0.00,meteohub,2013-05-07 23:22:00,
2013-05-07 19:23:00,59.2,59.2,30.22,East,90,11.0,13.0,0,0.00,,,0.00,meteohub,2013-05-07 23:23:00,
2013-05-07 19:24:00,59.2,59.2,30.21,East,90,8.0,13.0,0,0.00,,,0.00,meteohub,2013-05-07 23:24:00,
2013-05-07 19:25:00,59.2,59.2,30.22,East,90,8.0,13.0,0,0.00,,,0.00,meteohub,2013-05-07 23:25:00,
2013-05-07 19:27:00,59.2,59.2,30.21,East,90,10.0,17.0,0,0.00,,,0.00,meteohub,2013-05-07 23:27:00,
2013-05-07 19:28:00,59.2,59.2,30.22,NE,45,6.0,17.0,0,0.00,,,0.00,meteohub,2013-05-07 23:28:00,
2013-05-07 19:29:00,59.2,59.2,30.21,East,90,4.0,17.0,0,0.00,,,0.00,meteohub,2013-05-07 23:29:00,
2013-05-07 19:30:00,59.2,59.2,30.21,East,90,4.0,17.0,0,0.00,,,0.00,meteohub,2013-05-07 23:30:00,
2013-05-07 19:31:00,59.2,59.2,30.21,East,90,5.0,17.0,0,0.00,,,0.00,meteohub,2013-05-07 23:31:00,
2013-05-07 19:32:00,59.2,59.2,30.21,East,90,10.0,17.0,0,0.00,,,0.00,meteohub,2013-05-07 23:32:00,
2013-05-07 19:34:00,59.2,59.2,30.22,East,90,6.0,17.0,0,0.00,,,0.00,meteohub,2013-05-07 23:34:00,
2013-05-07 19:35:00,59.2,59.2,30.22,East,90,6.0,17.0,0,0.00,,,0.00,meteohub,2013-05-07 23:35:00,
2013-05-07 19:36:00,59.0,59.0,30.22,NE,45,4.0,17.0,0,0.00,,,0.00,meteohub,2013-05-07 23:36:00,
2013-05-07 19:37:00,59.2,59.2,30.21,East,90,10.0,17.0,0,0.00,,,0.00,meteohub,2013-05-07 23:37:00,
2013-05-07 19:40:00,59.0,59.0,30.22,East,90,11.0,11.0,0,0.00,,,0.00,meteohub,2013-05-07 23:40:00,
2013-05-07 19:41:00,59.0,59.0,30.22,East,90,4.0,10.0,0,0.00,,,0.00,meteohub,2013-05-07 23:41:00,
2013-05-07 19:42:00,59.0,59.0,30.22,SE,135,2.0,10.0,0,0.00,,,0.00,meteohub,2013-05-07 23:42:00,
2013-05-07 19:46:00,59.0,59.0,30.22,East,90,6.0,11.0,0,0.00,,,0.00,meteohub,2013-05-07 23:46:00,
2013-05-07 19:47:00,59.0,59.0,30.22,WSW,248,3.0,11.0,0,0.00,,,0.00,meteohub,2013-05-07 23:47:00,
2013-05-07 19:48:00,59.0,59.0,30.22,East,90,3.0,11.0,0,0.00,,,0.00,meteohub,2013-05-07 23:48:00,
2013-05-07 19:51:00,59.0,59.0,30.22,East,90,8.0,11.0,0,0.00,,,0.00,meteohub,2013-05-07 23:51:00,
2013-05-07 19:52:00,59.0,59.0,30.22,SE,135,5.0,11.0,0,0.00,,,0.00,meteohub,2013-05-07 23:52:00,
2013-05-07 19:53:00,59.0,59.0,30.22,SE,135,4.0,11.0,0,0.00,,,0.00,meteohub,2013-05-07 23:53:00,
2013-05-07 19:54:00,59.0,59.0,30.22,East,90,5.0,11.0,0,0.00,,,0.00,meteohub,2013-05-07 23:54:00,
2013-05-07 19:57:00,62.2,62.2,30.22,East,90,7.0,11.0,0,0.00,,,0.00,meteohub,2013-05-07 23:57:00,
2013-05-07 19:58:00,62.2,62.2,30.22,East,90,7.0,11.0,0,0.00,,,0.00,meteohub,2013-05-07 23:58:00,
2013-05-07 20:01:00,59.0,59.0,30.22,SE,135,8.0,12.0,0,0.00,,,0.00,meteohub,2013-05-08 00:01:00,
2013-05-07 20:03:00,59.0,59.0,30.21,SE,135,2.0,12.0,0,0.00,,,0.00,meteohub,2013-05-08 00:03:00,
2013-05-07 20:04:00,59.0,59.0,30.21,SE,135,2.0,12.0,0,0.00,,,0.00,meteohub,2013-05-08 00:04:00,
2013-05-07 20:07:00,59.0,59.0,30.22,ESE,113,10.0,12.0,0,0.00,,,0.00,meteohub,2013-05-08 00:07:00,
2013-05-07 20:08:00,59.0,59.0,30.22,East,90,4.0,12.0,0,0.00,,,0.00,meteohub,2013-05-08 00:08:00,
2013-05-07 20:09:00,59.0,59.0,30.21,East,90,7.0,12.0,0,0.00,,,0.00,meteohub,2013-05-08 00:09:00,
2013-05-07 20:12:00,58.8,58.8,30.22,SE,135,6.0,12.0,0,0.00,,,0.00,meteohub,2013-05-08 00:12:00,
2013-05-07 20:14:00,58.8,58.8,30.22,East,90,4.0,12.0,0,0.00,,,0.00,meteohub,2013-05-08 00:14:00,
2013-05-07 20:16:00,58.8,58.8,30.22,South,180,6.0,10.0,0,0.00,,,0.00,meteohub,2013-05-08 00:16:00,
2013-05-07 20:18:00,58.8,58.8,30.21,East,90,6.0,10.0,0,0.00,,,0.00,meteohub,2013-05-08 00:18:00,
2013-05-07 20:19:00,58.8,58.8,30.22,East,90,5.0,10.0,0,0.00,,,0.00,meteohub,2013-05-08 00:19:00,
2013-05-07 20:20:00,58.8,58.8,30.21,East,90,5.0,10.0,0,0.00,,,0.00,meteohub,2013-05-08 00:20:00,
2013-05-07 20:22:00,58.8,58.8,30.21,SE,135,4.0,10.0,0,0.00,,,0.00,meteohub,2013-05-08 00:22:00,
2013-05-07 20:23:00,58.8,58.8,30.21,East,90,4.0,10.0,0,0.00,,,0.00,meteohub,2013-05-08 00:23:00,
2013-05-07 20:25:00,58.8,58.8,30.21,East,90,4.0,10.0,0,0.00,,,0.00,meteohub,2013-05-08 00:25:00,
2013-05-07 20:26:00,58.8,58.8,30.21,East,90,4.0,11.0,0,0.00,,,0.00,meteohub,2013-05-08 00:26:00,
2013-05-07 20:27:00,58.6,58.6,30.21,SE,135,4.0,11.0,0,0.00,,,0.00,meteohub,2013-05-08 00:27:00,
2013-05-07 20:30:00,58.6,58.6,30.21,East,90,8.0,11.0,0,0.00,,,0.00,meteohub,2013-05-08 00:30:00,
2013-05-07 20:31:00,58.6,58.6,30.21,East,90,10.0,11.0,0,0.00,,,0.00,meteohub,2013-05-08 00:31:00,
2013-05-07 20:32:00,58.6,58.6,30.21,NE,45,7.0,11.0,0,0.00,,,0.00,meteohub,2013-05-08 00:32:00,
2013-05-07 20:33:00,58.6,58.6,30.21,East,90,8.0,11.0,0,0.00,,,0.00,meteohub,2013-05-08 00:33:00,
2013-05-07 20:35:00,58.6,58.6,30.21,South,180,4.0,11.0,0,0.00,,,0.00,meteohub,2013-05-08 00:35:00,
2013-05-07 20:36:00,58.6,58.6,30.21,South,180,4.0,11.0,0,0.00,,,0.00,meteohub,2013-05-08 00:36:00,
2013-05-07 20:37:00,58.6,58.6,30.21,South,180,4.0,11.0,0,0.00,,,0.00,meteohub,2013-05-08 00:37:00,
2013-05-07 20:38:00,58.6,58.6,30.21,South,180,4.0,11.0,0,0.00,,,0.00,meteohub,2013-05-08 00:38:00,
2013-05-07 20:39:00,58.5,58.5,30.21,East,90,4.0,11.0,0,0.00,,,0.00,meteohub,2013-05-08 00:39:00,
2013-05-07 20:41:00,58.5,58.5,30.21,East,90,8.0,11.0,0,0.00,,,0.00,meteohub,2013-05-08 00:41:00,
2013-05-07 20:42:00,58.5,58.5,30.21,SE,135,8.0,11.0,0,0.00,,,0.00,meteohub,2013-05-08 00:42:00,
2013-05-07 20:43:00,58.5,58.5,30.20,East,90,14.0,14.0,0,0.00,,,0.00,meteohub,2013-05-08 00:43:00,
2013-05-07 20:44:00,58.5,58.5,30.21,East,90,4.0,11.0,0,0.00,,,0.00,meteohub,2013-05-08 00:44:00,
2013-05-07 20:47:00,58.5,58.5,30.21,SE,135,3.0,11.0,0,0.00,,,0.00,meteohub,2013-05-08 00:47:00,
2013-05-07 20:48:00,58.5,58.5,30.21,SE,135,3.0,11.0,0,0.00,,,0.00,meteohub,2013-05-08 00:48:00,
2013-05-07 20:49:00,58.6,58.6,30.21,South,180,5.0,11.0,0,0.00,,,0.00,meteohub,2013-05-08 00:49:00,
2013-05-07 20:52:00,58.6,58.6,30.21,SE,135,11.0,14.0,0,0.00,,,0.00,meteohub,2013-05-08 00:52:00,
2013-05-07 20:53:00,58.5,58.5,30.21,East,90,5.0,14.0,0,0.00,,,0.00,meteohub,2013-05-08 00:53:00,
2013-05-07 20:54:00,58.6,58.6,30.22,East,90,5.0,14.0,0,0.00,,,0.00,meteohub,2013-05-08 00:54:00,
2013-05-07 20:55:00,58.6,58.6,30.21,East,90,11.0,14.0,0,0.00,,,0.00,meteohub,2013-05-08 00:55:00,
2013-05-07 20:58:00,58.6,58.6,30.21,East,90,10.0,14.0,0,0.00,,,0.00,meteohub,2013-05-08 00:58:00,
2013-05-07 20:59:00,58.6,58.6,30.21,East,90,9.0,14.0,0,0.00,,,0.00,meteohub,2013-05-08 00:59:00,
2013-05-07 21:00:00,58.6,58.6,30.20,East,90,8.0,11.0,0,0.00,,,0.00,meteohub,2013-05-08 01:00:00,
2013-05-07 21:01:00,58.6,58.6,30.21,East,90,4.0,11.0,0,0.00,,,0.00,meteohub,2013-05-08 01:01:00,
2013-05-07 21:03:00,58.6,58.6,30.21,South,180,3.0,11.0,0,0.00,,,0.00,meteohub,2013-05-08 01:03:00,
2013-05-07 21:04:00,58.6,58.6,30.21,SE,135,4.0,11.0,0,0.00,,,0.00,meteohub,2013-05-08 01:04:00,
2013-05-07 21:05:00,58.6,58.6,30.21,East,90,4.0,11.0,0,0.00,,,0.00,meteohub,2013-05-08 01:05:00,
2013-05-07 21:08:00,58.6,58.6,30.21,East,90,8.0,11.0,0,0.00,,,0.00,meteohub,2013-05-08 01:08:00,
2013-05-07 21:09:00,58.6,58.6,30.21,SE,135,4.0,11.0,0,0.00,,,0.00,meteohub,2013-05-08 01:09:00,
2013-05-07 21:10:00,58.6,58.6,30.20,East,90,6.0,11.0,0,0.00,,,0.00,meteohub,2013-05-08 01:10:00,
2013-05-07 21:11:00,58.6,58.6,30.20,East,90,6.0,11.0,0,0.00,,,0.00,meteohub,2013-05-08 01:11:00,
2013-05-07 21:13:00,58.8,58.8,30.21,East,90,4.0,11.0,0,0.00,,,0.00,meteohub,2013-05-08 01:13:00,
2013-05-07 21:16:00,58.8,58.8,30.21,East,90,6.0,9.0,0,0.00,,,0.00,meteohub,2013-05-08 01:16:00,
2013-05-07 21:17:00,58.8,58.8,30.21,South,180,14.0,14.0,0,0.00,,,0.00,meteohub,2013-05-08 01:17:00,
2013-05-07 21:19:00,58.8,58.8,30.20,East,90,11.0,11.0,0,0.00,,,0.00,meteohub,2013-05-08 01:19:00,
2013-05-07 21:21:00,58.8,58.8,30.20,SE,135,9.0,14.0,0,0.00,,,0.00,meteohub,2013-05-08 01:21:00,
2013-05-07 21:22:00,58.8,58.8,30.21,WSW,248,6.0,14.0,0,0.00,,,0.00,meteohub,2013-05-08 01:22:00,
2013-05-07 21:24:00,58.8,58.8,30.21,East,90,5.0,14.0,0,0.00,,,0.00,meteohub,2013-05-08 01:24:00,
2013-05-07 21:26:00,58.8,58.8,30.21,East,90,7.0,14.0,0,0.00,,,0.00,meteohub,2013-05-08 01:26:00,
2013-05-07 21:27:00,58.8,58.8,30.21,SE,135,6.0,14.0,0,0.00,,,0.00,meteohub,2013-05-08 01:27:00,
2013-05-07 21:28:00,58.8,58.8,30.20,East,90,4.0,14.0,0,0.00,,,0.00,meteohub,2013-05-08 01:28:00,
2013-05-07 21:30:00,58.8,58.8,30.21,East,90,7.0,14.0,0,0.00,,,0.00,meteohub,2013-05-08 01:30:00,
2013-05-07 21:32:00,58.8,58.8,30.21,SE,135,7.0,14.0,0,0.00,,,0.00,meteohub,2013-05-08 01:32:00,
2013-05-07 21:33:00,58.8,58.8,30.21,East,90,11.0,14.0,0,0.00,,,0.00,meteohub,2013-05-08 01:33:00,
2013-05-07 21:34:00,58.8,58.8,30.21,East,90,11.0,14.0,0,0.00,,,0.00,meteohub,2013-05-08 01:34:00,
2013-05-07 21:35:00,58.8,58.8,30.21,East,90,11.0,11.0,0,0.00,,,0.00,meteohub,2013-05-08 01:35:00,
2013-05-07 21:37:00,58.8,58.8,30.21,NE,45,8.0,11.0,0,0.00,,,0.00,meteohub,2013-05-08 01:37:00,
2013-05-07 21:38:00,58.8,58.8,30.21,NE,45,8.0,11.0,0,0.00,,,0.00,meteohub,2013-05-08 01:38:00,
2013-05-07 21:39:00,58.8,58.8,30.21,South,180,4.0,11.0,0,0.00,,,0.00,meteohub,2013-05-08 01:39:00,
2013-05-07 21:41:00,58.8,58.8,30.21,East,90,9.0,11.0,0,0.00,,,0.00,meteohub,2013-05-08 01:41:00,
2013-05-07 21:43:00,58.8,58.8,30.22,SE,135,4.0,11.0,0,0.00,,,0.00,meteohub,2013-05-08 01:43:00,
2013-05-07 21:44:00,58.8,58.8,30.22,SE,135,4.0,11.0,0,0.00,,,0.00,meteohub,2013-05-08 01:44:00,
2013-05-07 21:45:00,58.8,58.8,30.22,East,90,7.0,11.0,0,0.00,,,0.00,meteohub,2013-05-08 01:45:00,
2013-05-07 21:49:00,58.8,58.8,30.21,SE,135,7.0,11.0,0,0.00,,,0.00,meteohub,2013-05-08 01:49:00,
2013-05-07 21:50:00,58.8,58.8,30.22,East,90,4.0,11.0,0,0.00,,,0.00,meteohub,2013-05-08 01:50:00,
2013-05-07 21:51:00,58.8,58.8,30.22,East,90,4.0,15.0,0,0.00,,,0.00,meteohub,2013-05-08 01:51:00,
2013-05-07 21:54:00,58.8,58.8,30.22,East,90,4.0,15.0,0,0.00,,,0.00,meteohub,2013-05-08 01:54:00,
2013-05-07 21:55:00,58.8,58.8,30.22,East,90,4.0,15.0,0,0.00,,,0.00,meteohub,2013-05-08 01:55:00,
2013-05-07 21:57:00,58.8,58.8,30.21,East,90,4.0,15.0,0,0.00,,,0.00,meteohub,2013-05-08 01:57:00,
2013-05-07 22:00:00,58.8,58.8,30.21,SE,135,5.0,15.0,0,0.00,,,0.00,meteohub,2013-05-08 02:00:00,
2013-05-07 22:01:00,58.8,58.8,30.21,SE,135,5.0,15.0,0,0.00,,,0.00,meteohub,2013-05-08 02:01:00,
2013-05-07 22:03:00,58.8,58.8,30.21,SE,135,5.0,15.0,0,0.00,,,0.00,meteohub,2013-05-08 02:03:00,
2013-05-07 22:05:00,58.8,58.8,30.21,SE,135,5.0,5.0,0,0.00,,,0.00,meteohub,2013-05-08 02:05:00,
2013-05-07 22:06:00,58.8,58.8,30.22,SE,135,5.0,5.0,0,0.00,,,0.00,meteohub,2013-05-08 02:06:00,
2013-05-07 22:07:00,58.8,58.8,30.21,SE,135,5.0,5.0,0,0.00,,,0.00,meteohub,2013-05-08 02:07:00,
2013-05-07 22:08:00,58.6,58.6,30.21,East,90,7.0,7.0,0,0.00,,,0.00,meteohub,2013-05-08 02:08:00,
2013-05-07 22:10:00,58.6,58.6,30.21,East,90,7.0,9.0,0,0.00,,,0.00,meteohub,2013-05-08 02:10:00,
2013-05-07 22:12:00,58.6,58.6,30.21,NE,45,10.0,10.0,0,0.00,,,0.00,meteohub,2013-05-08 02:12:00,
2013-05-07 22:13:00,58.6,58.6,30.21,SE,135,8.0,9.0,0,0.00,,,0.00,meteohub,2013-05-08 02:13:00,
2013-05-07 22:14:00,58.6,58.6,30.21,SE,135,4.0,9.0,0,0.00,,,0.00,meteohub,2013-05-08 02:14:00,
2013-05-07 22:16:00,58.6,58.6,30.21,SE,135,11.0,11.0,0,0.00,,,0.00,meteohub,2013-05-08 02:16:00,
2013-05-07 22:17:00,58.6,58.6,30.21,SE,135,8.0,10.0,0,0.00,,,0.00,meteohub,2013-05-08 02:17:00,
2013-05-07 22:18:00,58.6,58.6,30.21,East,90,4.0,10.0,0,0.00,,,0.00,meteohub,2013-05-08 02:18:00,
2013-05-07 22:19:00,58.6,58.6,30.21,East,90,7.0,10.0,0,0.00,,,0.00,meteohub,2013-05-08 02:19:00,
2013-05-07 22:21:00,58.6,58.6,30.21,East,90,4.0,11.0,0,0.00,,,0.00,meteohub,2013-05-08 02:21:00,
2013-05-07 22:23:00,58.6,58.6,30.22,SE,135,4.0,11.0,0,0.00,,,0.00,meteohub,2013-05-08 02:23:00,
2013-05-07 22:24:00,58.6,58.6,30.22,SE,135,4.0,11.0,0,0.00,,,0.00,meteohub,2013-05-08 02:24:00,
2013-05-07 22:25:00,58.6,58.6,30.22,North,0,5.0,11.0,0,0.00,,,0.00,meteohub,2013-05-08 02:25:00,
2013-05-07 22:27:00,58.6,58.6,30.21,SE,135,4.0,11.0,0,0.00,,,0.00,meteohub,2013-05-08 02:27:00,
2013-05-07 22:29:00,58.5,58.5,30.21,East,90,3.0,11.0,0,0.00,,,0.00,meteohub,2013-05-08 02:29:00,
2013-05-07 22:30:00,58.5,58.5,30.21,East,90,4.0,11.0,0,0.00,,,0.00,meteohub,2013-05-08 02:30:00,
2013-05-07 22:33:00,58.5,58.5,30.21,East,90,12.0,12.0,0,0.00,,,0.00,meteohub,2013-05-08 02:33:00,
2013-05-07 22:34:00,58.5,58.5,30.21,South,180,4.0,11.0,0,0.00,,,0.00,meteohub,2013-05-08 02:34:00,
2013-05-07 22:35:00,58.5,58.5,30.21,NE,45,4.0,11.0,0,0.00,,,0.00,meteohub,2013-05-08 02:35:00,
2013-05-07 22:36:00,58.5,58.5,30.21,South,180,11.0,11.0,0,0.00,,,0.00,meteohub,2013-05-08 02:36:00,
2013-05-07 22:37:00,58.5,58.5,30.21,SE,135,6.0,11.0,0,0.00,,,0.00,meteohub,2013-05-08 02:37:00,
2013-05-07 22:40:00,58.5,58.5,30.21,SE,135,8.0,12.0,0,0.00,,,0.00,meteohub,2013-05-08 02:40:00,
2013-05-07 22:41:00,58.5,58.5,30.21,East,90,3.0,12.0,0,0.00,,,0.00,meteohub,2013-05-08 02:41:00,
2013-05-07 22:44:00,58.5,58.5,30.21,East,90,5.0,12.0,0,0.00,,,0.00,meteohub,2013-05-08 02:44:00,
2013-05-07 22:46:00,58.5,58.5,30.21,East,90,4.0,13.0,0,0.00,,,0.00,meteohub,2013-05-08 02:46:00,
2013-05-07 22:48:00,58.3,58.3,30.21,East,90,4.0,13.0,0,0.00,,,0.00,meteohub,2013-05-08 02:48:00,
2013-05-07 22:49:00,58.1,58.1,30.21,East,90,4.0,13.0,0,0.00,,,0.00,meteohub,2013-05-08 02:49:00,
2013-05-07 22:51:00,58.1,58.1,30.21,SSE,158,8.0,13.0,0,0.00,,,0.00,meteohub,2013-05-08 02:51:00,
2013-05-07 22:52:00,58.1,58.1,30.21,SE,135,5.0,13.0,0,0.00,,,0.00,meteohub,2013-05-08 02:52:00,
2013-05-07 22:54:00,58.1,58.1,30.21,East,90,5.0,13.0,0,0.00,,,0.00,meteohub,2013-05-08 02:54:00,
2013-05-07 22:55:00,58.1,58.1,30.21,East,90,5.0,13.0,0,0.00,,,0.00,meteohub,2013-05-08 02:55:00,
2013-05-07 22:56:00,58.1,58.1,30.21,NE,45,5.0,13.0,0,0.00,,,0.00,meteohub,2013-05-08 02:56:00,
2013-05-07 22:57:00,57.9,57.9,30.20,SE,135,2.0,13.0,0,0.00,,,0.00,meteohub,2013-05-08 02:57:00,
2013-05-07 22:59:00,57.9,57.9,30.20,East,90,2.0,13.0,0,0.00,,,0.00,meteohub,2013-05-08 02:59:00,
2013-05-07 23:01:00,57.9,57.9,30.21,SE,135,2.0,8.0,0,0.00,,,0.00,meteohub,2013-05-08 03:01:00,
2013-05-07 23:03:00,57.9,57.9,30.21,SE,135,2.0,8.0,0,0.00,,,0.00,meteohub,2013-05-08 03:03:00,
2013-05-07 23:04:00,57.9,57.9,30.21,SE,135,2.0,8.0,0,0.00,,,0.00,meteohub,2013-05-08 03:04:00,
2013-05-07 23:05:00,57.9,57.9,30.21,SE,135,2.0,8.0,0,0.00,,,0.00,meteohub,2013-05-08 03:05:00,
2013-05-07 23:06:00,57.9,57.9,30.21,SE,135,2.0,8.0,0,0.00,,,0.00,meteohub,2013-05-08 03:06:00,
2013-05-07 23:08:00,57.9,57.9,30.21,SE,135,6.0,8.0,0,0.00,,,0.00,meteohub,2013-05-08 03:08:00,
2013-05-07 23:10:00,57.9,57.9,30.20,SE,135,9.0,9.0,0,0.00,,,0.00,meteohub,2013-05-08 03:10:00,
2013-05-07 23:11:00,57.9,57.9,30.20,SE,135,9.0,9.0,0,0.00,,,0.00,meteohub,2013-05-08 03:11:00,
2013-05-07 23:12:00,57.9,57.9,30.20,East,90,8.0,8.0,0,0.00,,,0.00,meteohub,2013-05-08 03:12:00,
2013-05-07 23:13:00,57.9,57.9,30.21,North,0,4.0,7.0,0,0.00,,,0.00,meteohub,2013-05-08 03:13:00,
2013-05-07 23:14:00,57.9,57.9,30.21,East,90,8.0,8.0,0,0.00,,,0.00,meteohub,2013-05-08 03:14:00,
2013-05-07 23:16:00,57.9,57.9,30.21,South,180,4.0,9.0,0,0.00,,,0.00,meteohub,2013-05-08 03:16:00,
2013-05-07 23:17:00,57.9,57.9,30.20,North,0,6.0,9.0,0,0.00,,,0.00,meteohub,2013-05-08 03:17:00,
2013-05-07 23:19:00,57.9,57.9,30.20,SE,135,4.0,9.0,0,0.00,,,0.00,meteohub,2013-05-08 03:19:00,
2013-05-07 23:21:00,57.9,57.9,30.21,East,90,2.0,9.0,0,0.00,,,0.00,meteohub,2013-05-08 03:21:00,
2013-05-07 23:23:00,57.9,57.9,30.21,East,90,8.0,9.0,0,0.00,,,0.00,meteohub,2013-05-08 03:23:00,
2013-05-07 23:24:00,57.9,57.9,30.20,South,180,5.0,9.0,0,0.00,,,0.00,meteohub,2013-05-08 03:24:00,
2013-05-07 23:26:00,57.7,57.7,30.20,South,180,4.0,9.0,0,0.00,,,0.00,meteohub,2013-05-08 03:26:00,
2013-05-07 23:29:00,57.7,57.7,30.21,East,90,9.0,9.0,0,0.00,,,0.00,meteohub,2013-05-08 03:29:00,
2013-05-07 23:30:00,57.7,57.7,30.20,East,90,14.0,14.0,0,0.00,,,0.00,meteohub,2013-05-08 03:30:00,
2013-05-07 23:31:00,57.7,57.7,30.20,East,90,4.0,9.0,0,0.00,,,0.00,meteohub,2013-05-08 03:31:00,
2013-05-07 23:32:00,57.7,57.7,30.20,East,90,4.0,9.0,0,0.00,,,0.00,meteohub,2013-05-08 03:32:00,
2013-05-07 23:34:00,57.7,57.7,30.20,South,180,8.0,9.0,0,0.00,,,0.00,meteohub,2013-05-08 03:34:00,
2013-05-07 23:35:00,57.7,57.7,30.20,South,180,8.0,14.0,0,0.00,,,0.00,meteohub,2013-05-08 03:35:00,
2013-05-07 23:36:00,57.7,57.7,30.20,East,90,8.0,14.0,0,0.00,,,0.00,meteohub,2013-05-08 03:36:00,
2013-05-07 23:37:00,57.7,57.7,30.20,SE,135,6.0,14.0,0,0.00,,,0.00,meteohub,2013-05-08 03:37:00,
2013-05-07 23:40:00,57.6,57.6,30.20,East,90,4.0,14.0,0,0.00,,,0.00,meteohub,2013-05-08 03:40:00,
2013-05-07 23:42:00,57.6,57.6,30.20,East,90,7.0,14.0,0,0.00,,,0.00,meteohub,2013-05-08 03:42:00,
2013-05-07 23:43:00,57.4,57.4,30.20,East,90,7.0,14.0,0,0.00,,,0.00,meteohub,2013-05-08 03:43:00,
2013-05-07 23:44:00,57.4,57.4,30.20,South,180,5.0,14.0,0,0.00,,,0.00,meteohub,2013-05-08 03:44:00,
2013-05-07 23:45:00,57.4,57.4,30.19,SE,135,5.0,11.0,0,0.00,,,0.00,meteohub,2013-05-08 03:45:00,
2013-05-07 23:47:00,57.4,57.4,30.19,SE,135,8.0,11.0,0,0.00,,,0.00,meteohub,2013-05-08 03:47:00,
2013-05-07 23:48:00,57.4,57.4,30.20,SE,135,12.0,12.0,0,0.00,,,0.00,meteohub,2013-05-08 03:48:00,
2013-05-07 23:49:00,57.4,57.4,30.19,East,90,10.0,11.0,0,0.00,,,0.00,meteohub,2013-05-08 03:49:00,
2013-05-07 23:50:00,57.2,57.2,30.20,South,180,5.0,12.0,0,0.00,,,0.00,meteohub,2013-05-08 03:50:00,
2013-05-07 23:53:00,57.2,57.2,30.20,East,90,7.0,12.0,0,0.00,,,0.00,meteohub,2013-05-08 03:53:00,
2013-05-07 23:54:00,57.2,57.2,30.19,East,90,6.0,12.0,0,0.00,,,0.00,meteohub,2013-05-08 03:54:00,
2013-05-07 23:55:00,57.2,57.2,30.20,SE,135,12.0,12.0,0,0.00,,,0.00,meteohub,2013-05-08 03:55:00,
2013-05-07 23:59:00,57.2,57.2,30.19,East,90,8.0,12.0,0,0.00,,,0.00,meteohub,2013-05-08 03:59:00,